<?xml version="1.0" encoding="UTF-8" standalone="no" ?>
<gpx xmlns="http://www.topografix.com/GPX/1/1" xmlns:xsi="http://www.w3.org/2001/XMLSchema-instance" xsi:schemaLocation="http://www.topografix.com/GPX/1/1 http://www.topografix.com/GPX/1/1/gpx.xsd" version="1.1" creator="VisuGPX - https://www.visugpx.com">
  <metadata>
    <name>Sortie Villeneuve Lurs 20 04 2015</name>
    <desc><![CDATA[Avec Yves Alberti]]></desc>
  </metadata>
  <trk>
    <name><![CDATA[Actuel: 20 APR 2015 16:03]]></name>
    <trkseg>
      <trkpt lat="43.90138" lon="5.86835">
        <ele>201.09</ele>
        <time>2015-04-20T14:03:58Z</time>
      </trkpt>
      <trkpt lat="43.90159" lon="5.86845">
        <ele>200.32</ele>
        <time>2015-04-20T14:04:03Z</time>
      </trkpt>
      <trkpt lat="43.90165" lon="5.86845">
        <ele>200.31</ele>
        <time>2015-04-20T14:04:05Z</time>
      </trkpt>
      <trkpt lat="43.90185" lon="5.8685">
        <ele>200.29</ele>
        <time>2015-04-20T14:04:10Z</time>
      </trkpt>
      <trkpt lat="43.90212" lon="5.86865">
        <ele>200.21</ele>
        <time>2015-04-20T14:04:17Z</time>
      </trkpt>
      <trkpt lat="43.90255" lon="5.86885">
        <ele>199.98</ele>
        <time>2015-04-20T14:04:25Z</time>
      </trkpt>
      <trkpt lat="43.90288" lon="5.8692">
        <ele>200.27</ele>
        <time>2015-04-20T14:04:32Z</time>
      </trkpt>
      <trkpt lat="43.90302" lon="5.86957">
        <ele>200.48</ele>
        <time>2015-04-20T14:04:38Z</time>
      </trkpt>
      <trkpt lat="43.90309" lon="5.8695">
        <ele>200.96</ele>
        <time>2015-04-20T14:04:44Z</time>
      </trkpt>
      <trkpt lat="43.90304" lon="5.86935">
        <ele>201.83</ele>
        <time>2015-04-20T14:04:49Z</time>
      </trkpt>
      <trkpt lat="43.90303" lon="5.86924">
        <ele>202.83</ele>
        <time>2015-04-20T14:04:53Z</time>
      </trkpt>
      <trkpt lat="43.90285" lon="5.86887">
        <ele>206.05</ele>
        <time>2015-04-20T14:05:08Z</time>
      </trkpt>
      <trkpt lat="43.90267" lon="5.86855">
        <ele>207.66</ele>
        <time>2015-04-20T14:05:20Z</time>
      </trkpt>
      <trkpt lat="43.90259" lon="5.86811">
        <ele>210.85</ele>
        <time>2015-04-20T14:05:32Z</time>
      </trkpt>
      <trkpt lat="43.90253" lon="5.86793">
        <ele>213.92</ele>
        <time>2015-04-20T14:05:39Z</time>
      </trkpt>
      <trkpt lat="43.90238" lon="5.86767">
        <ele>216.95</ele>
        <time>2015-04-20T14:05:49Z</time>
      </trkpt>
      <trkpt lat="43.90205" lon="5.86726">
        <ele>219.79</ele>
        <time>2015-04-20T14:06:03Z</time>
      </trkpt>
      <trkpt lat="43.90181" lon="5.86701">
        <ele>222.87</ele>
        <time>2015-04-20T14:06:15Z</time>
      </trkpt>
      <trkpt lat="43.90156" lon="5.86662">
        <ele>225.27</ele>
        <time>2015-04-20T14:06:27Z</time>
      </trkpt>
      <trkpt lat="43.9013" lon="5.86606">
        <ele>227.15</ele>
        <time>2015-04-20T14:06:43Z</time>
      </trkpt>
      <trkpt lat="43.90113" lon="5.86563">
        <ele>228.94</ele>
        <time>2015-04-20T14:06:54Z</time>
      </trkpt>
      <trkpt lat="43.90102" lon="5.86539">
        <ele>231.56</ele>
        <time>2015-04-20T14:07:04Z</time>
      </trkpt>
      <trkpt lat="43.90099" lon="5.86528">
        <ele>232.72</ele>
        <time>2015-04-20T14:07:08Z</time>
      </trkpt>
      <trkpt lat="43.90083" lon="5.86502">
        <ele>236.09</ele>
        <time>2015-04-20T14:07:19Z</time>
      </trkpt>
      <trkpt lat="43.90071" lon="5.8648">
        <ele>239.34</ele>
        <time>2015-04-20T14:07:30Z</time>
      </trkpt>
      <trkpt lat="43.90054" lon="5.86446">
        <ele>242.37</ele>
        <time>2015-04-20T14:07:41Z</time>
      </trkpt>
      <trkpt lat="43.90052" lon="5.86438">
        <ele>242.98</ele>
        <time>2015-04-20T14:07:43Z</time>
      </trkpt>
      <trkpt lat="43.90066" lon="5.86442">
        <ele>244.19</ele>
        <time>2015-04-20T14:07:53Z</time>
      </trkpt>
      <trkpt lat="43.90114" lon="5.86465">
        <ele>244.2</ele>
        <time>2015-04-20T14:08:07Z</time>
      </trkpt>
      <trkpt lat="43.9014" lon="5.86469">
        <ele>244.64</ele>
        <time>2015-04-20T14:08:13Z</time>
      </trkpt>
      <trkpt lat="43.90206" lon="5.86485">
        <ele>246.33</ele>
        <time>2015-04-20T14:08:29Z</time>
      </trkpt>
      <trkpt lat="43.90256" lon="5.86502">
        <ele>248.44</ele>
        <time>2015-04-20T14:08:43Z</time>
      </trkpt>
      <trkpt lat="43.90308" lon="5.86495">
        <ele>250.65</ele>
        <time>2015-04-20T14:08:56Z</time>
      </trkpt>
      <trkpt lat="43.9035" lon="5.86461">
        <ele>252.54</ele>
        <time>2015-04-20T14:09:09Z</time>
      </trkpt>
      <trkpt lat="43.90386" lon="5.86436">
        <ele>254.24</ele>
        <time>2015-04-20T14:09:23Z</time>
      </trkpt>
      <trkpt lat="43.9042" lon="5.86434">
        <ele>255.09</ele>
        <time>2015-04-20T14:09:37Z</time>
      </trkpt>
      <trkpt lat="43.90429" lon="5.86434">
        <ele>255.44</ele>
        <time>2015-04-20T14:09:41Z</time>
      </trkpt>
      <trkpt lat="43.90472" lon="5.86411">
        <ele>257.75</ele>
        <time>2015-04-20T14:09:55Z</time>
      </trkpt>
      <trkpt lat="43.90527" lon="5.86375">
        <ele>258.65</ele>
        <time>2015-04-20T14:10:09Z</time>
      </trkpt>
      <trkpt lat="43.9057" lon="5.86349">
        <ele>259.5</ele>
        <time>2015-04-20T14:10:21Z</time>
      </trkpt>
      <trkpt lat="43.90601" lon="5.86307">
        <ele>260.75</ele>
        <time>2015-04-20T14:10:33Z</time>
      </trkpt>
      <trkpt lat="43.90624" lon="5.8625">
        <ele>261.2</ele>
        <time>2015-04-20T14:10:45Z</time>
      </trkpt>
      <trkpt lat="43.90642" lon="5.86187">
        <ele>262.37</ele>
        <time>2015-04-20T14:10:58Z</time>
      </trkpt>
      <trkpt lat="43.90658" lon="5.8614">
        <ele>263.73</ele>
        <time>2015-04-20T14:11:09Z</time>
      </trkpt>
      <trkpt lat="43.9066" lon="5.86091">
        <ele>265.47</ele>
        <time>2015-04-20T14:11:20Z</time>
      </trkpt>
      <trkpt lat="43.90653" lon="5.86037">
        <ele>267.15</ele>
        <time>2015-04-20T14:11:32Z</time>
      </trkpt>
      <trkpt lat="43.90647" lon="5.85983">
        <ele>270.24</ele>
        <time>2015-04-20T14:11:45Z</time>
      </trkpt>
      <trkpt lat="43.90641" lon="5.85923">
        <ele>272.18</ele>
        <time>2015-04-20T14:12:00Z</time>
      </trkpt>
      <trkpt lat="43.9062" lon="5.85889">
        <ele>273.43</ele>
        <time>2015-04-20T14:12:13Z</time>
      </trkpt>
      <trkpt lat="43.90615" lon="5.8584">
        <ele>274.69</ele>
        <time>2015-04-20T14:12:26Z</time>
      </trkpt>
      <trkpt lat="43.90608" lon="5.85791">
        <ele>275.35</ele>
        <time>2015-04-20T14:12:37Z</time>
      </trkpt>
      <trkpt lat="43.9061" lon="5.85786">
        <ele>275.41</ele>
        <time>2015-04-20T14:12:38Z</time>
      </trkpt>
      <trkpt lat="43.90625" lon="5.85778">
        <ele>276.53</ele>
        <time>2015-04-20T14:12:43Z</time>
      </trkpt>
      <trkpt lat="43.90657" lon="5.85757">
        <ele>276.29</ele>
        <time>2015-04-20T14:12:54Z</time>
      </trkpt>
      <trkpt lat="43.9065" lon="5.85699">
        <ele>277.21</ele>
        <time>2015-04-20T14:13:06Z</time>
      </trkpt>
      <trkpt lat="43.90647" lon="5.85631">
        <ele>278.45</ele>
        <time>2015-04-20T14:13:19Z</time>
      </trkpt>
      <trkpt lat="43.90671" lon="5.85617">
        <ele>280.39</ele>
        <time>2015-04-20T14:13:28Z</time>
      </trkpt>
      <trkpt lat="43.90706" lon="5.85591">
        <ele>282.81</ele>
        <time>2015-04-20T14:13:40Z</time>
      </trkpt>
      <trkpt lat="43.90723" lon="5.85547">
        <ele>285.11</ele>
        <time>2015-04-20T14:13:52Z</time>
      </trkpt>
      <trkpt lat="43.9072" lon="5.85496">
        <ele>287.79</ele>
        <time>2015-04-20T14:14:05Z</time>
      </trkpt>
      <trkpt lat="43.90719" lon="5.85437">
        <ele>290.25</ele>
        <time>2015-04-20T14:14:19Z</time>
      </trkpt>
      <trkpt lat="43.9073" lon="5.85386">
        <ele>293.35</ele>
        <time>2015-04-20T14:14:31Z</time>
      </trkpt>
      <trkpt lat="43.9075" lon="5.85354">
        <ele>295.21</ele>
        <time>2015-04-20T14:14:42Z</time>
      </trkpt>
      <trkpt lat="43.90793" lon="5.85355">
        <ele>297.54</ele>
        <time>2015-04-20T14:14:54Z</time>
      </trkpt>
      <trkpt lat="43.90825" lon="5.85346">
        <ele>298.14</ele>
        <time>2015-04-20T14:15:06Z</time>
      </trkpt>
      <trkpt lat="43.9087" lon="5.8529">
        <ele>298.56</ele>
        <time>2015-04-20T14:15:21Z</time>
      </trkpt>
      <trkpt lat="43.90899" lon="5.8526">
        <ele>299.07</ele>
        <time>2015-04-20T14:15:30Z</time>
      </trkpt>
      <trkpt lat="43.90943" lon="5.85238">
        <ele>299.89</ele>
        <time>2015-04-20T14:15:42Z</time>
      </trkpt>
      <trkpt lat="43.90989" lon="5.85216">
        <ele>302.09</ele>
        <time>2015-04-20T14:15:56Z</time>
      </trkpt>
      <trkpt lat="43.91022" lon="5.85176">
        <ele>304.74</ele>
        <time>2015-04-20T14:16:08Z</time>
      </trkpt>
      <trkpt lat="43.91059" lon="5.85137">
        <ele>304.81</ele>
        <time>2015-04-20T14:16:20Z</time>
      </trkpt>
      <trkpt lat="43.91099" lon="5.85114">
        <ele>305.23</ele>
        <time>2015-04-20T14:16:30Z</time>
      </trkpt>
      <trkpt lat="43.91138" lon="5.85088">
        <ele>305.58</ele>
        <time>2015-04-20T14:16:40Z</time>
      </trkpt>
      <trkpt lat="43.91212" lon="5.85062">
        <ele>306.37</ele>
        <time>2015-04-20T14:16:55Z</time>
      </trkpt>
      <trkpt lat="43.91262" lon="5.85065">
        <ele>306.35</ele>
        <time>2015-04-20T14:17:05Z</time>
      </trkpt>
      <trkpt lat="43.91294" lon="5.85076">
        <ele>306.36</ele>
        <time>2015-04-20T14:17:11Z</time>
      </trkpt>
      <trkpt lat="43.91316" lon="5.85076">
        <ele>306.1</ele>
        <time>2015-04-20T14:17:15Z</time>
      </trkpt>
      <trkpt lat="43.91332" lon="5.85071">
        <ele>305.92</ele>
        <time>2015-04-20T14:17:18Z</time>
      </trkpt>
      <trkpt lat="43.91364" lon="5.85048">
        <ele>306.77</ele>
        <time>2015-04-20T14:17:25Z</time>
      </trkpt>
      <trkpt lat="43.91378" lon="5.85035">
        <ele>307.26</ele>
        <time>2015-04-20T14:17:28Z</time>
      </trkpt>
      <trkpt lat="43.91391" lon="5.85002">
        <ele>307.67</ele>
        <time>2015-04-20T14:17:33Z</time>
      </trkpt>
      <trkpt lat="43.91399" lon="5.84964">
        <ele>307.08</ele>
        <time>2015-04-20T14:17:38Z</time>
      </trkpt>
      <trkpt lat="43.91429" lon="5.8486">
        <ele>305.96</ele>
        <time>2015-04-20T14:17:51Z</time>
      </trkpt>
      <trkpt lat="43.91441" lon="5.84818">
        <ele>305.33</ele>
        <time>2015-04-20T14:17:56Z</time>
      </trkpt>
      <trkpt lat="43.91426" lon="5.84771">
        <ele>305.34</ele>
        <time>2015-04-20T14:18:03Z</time>
      </trkpt>
      <trkpt lat="43.91406" lon="5.84766">
        <ele>305.55</ele>
        <time>2015-04-20T14:18:06Z</time>
      </trkpt>
      <trkpt lat="43.91354" lon="5.8475">
        <ele>305.77</ele>
        <time>2015-04-20T14:18:15Z</time>
      </trkpt>
      <trkpt lat="43.91326" lon="5.84708">
        <ele>305.54</ele>
        <time>2015-04-20T14:18:23Z</time>
      </trkpt>
      <trkpt lat="43.91319" lon="5.84606">
        <ele>305.55</ele>
        <time>2015-04-20T14:18:38Z</time>
      </trkpt>
      <trkpt lat="43.91317" lon="5.84526">
        <ele>306.29</ele>
        <time>2015-04-20T14:18:50Z</time>
      </trkpt>
      <trkpt lat="43.91323" lon="5.8449">
        <ele>307.34</ele>
        <time>2015-04-20T14:18:56Z</time>
      </trkpt>
      <trkpt lat="43.91324" lon="5.84463">
        <ele>306.67</ele>
        <time>2015-04-20T14:19:00Z</time>
      </trkpt>
      <trkpt lat="43.91323" lon="5.84386">
        <ele>305.97</ele>
        <time>2015-04-20T14:19:10Z</time>
      </trkpt>
      <trkpt lat="43.91356" lon="5.84294">
        <ele>304.09</ele>
        <time>2015-04-20T14:19:23Z</time>
      </trkpt>
      <trkpt lat="43.91394" lon="5.84205">
        <ele>305.23</ele>
        <time>2015-04-20T14:19:39Z</time>
      </trkpt>
      <trkpt lat="43.91404" lon="5.84182">
        <ele>305.28</ele>
        <time>2015-04-20T14:19:44Z</time>
      </trkpt>
      <trkpt lat="43.91408" lon="5.84172">
        <ele>305.82</ele>
        <time>2015-04-20T14:19:46Z</time>
      </trkpt>
      <trkpt lat="43.91422" lon="5.84136">
        <ele>306.24</ele>
        <time>2015-04-20T14:19:53Z</time>
      </trkpt>
      <trkpt lat="43.91439" lon="5.84081">
        <ele>305.78</ele>
        <time>2015-04-20T14:20:02Z</time>
      </trkpt>
      <trkpt lat="43.91483" lon="5.84063">
        <ele>304.14</ele>
        <time>2015-04-20T14:20:11Z</time>
      </trkpt>
      <trkpt lat="43.91509" lon="5.84077">
        <ele>303.88</ele>
        <time>2015-04-20T14:20:16Z</time>
      </trkpt>
      <trkpt lat="43.91541" lon="5.84058">
        <ele>305.1</ele>
        <time>2015-04-20T14:20:23Z</time>
      </trkpt>
      <trkpt lat="43.91574" lon="5.83953">
        <ele>306.54</ele>
        <time>2015-04-20T14:20:40Z</time>
      </trkpt>
      <trkpt lat="43.91589" lon="5.83909">
        <ele>306.91</ele>
        <time>2015-04-20T14:20:48Z</time>
      </trkpt>
      <trkpt lat="43.91607" lon="5.83892">
        <ele>306.91</ele>
        <time>2015-04-20T14:20:53Z</time>
      </trkpt>
      <trkpt lat="43.91662" lon="5.83887">
        <ele>307.75</ele>
        <time>2015-04-20T14:21:05Z</time>
      </trkpt>
      <trkpt lat="43.91711" lon="5.83855">
        <ele>309.62</ele>
        <time>2015-04-20T14:21:18Z</time>
      </trkpt>
      <trkpt lat="43.91751" lon="5.83865">
        <ele>311.54</ele>
        <time>2015-04-20T14:21:29Z</time>
      </trkpt>
      <trkpt lat="43.91793" lon="5.83857">
        <ele>313.99</ele>
        <time>2015-04-20T14:21:41Z</time>
      </trkpt>
      <trkpt lat="43.91812" lon="5.8384">
        <ele>315.57</ele>
        <time>2015-04-20T14:21:47Z</time>
      </trkpt>
      <trkpt lat="43.91818" lon="5.83832">
        <ele>315.97</ele>
        <time>2015-04-20T14:21:49Z</time>
      </trkpt>
      <trkpt lat="43.91826" lon="5.83813">
        <ele>317.02</ele>
        <time>2015-04-20T14:21:53Z</time>
      </trkpt>
      <trkpt lat="43.91833" lon="5.83767">
        <ele>320.38</ele>
        <time>2015-04-20T14:22:02Z</time>
      </trkpt>
      <trkpt lat="43.91835" lon="5.83757">
        <ele>321.15</ele>
        <time>2015-04-20T14:22:04Z</time>
      </trkpt>
      <trkpt lat="43.91857" lon="5.83703">
        <ele>320.87</ele>
        <time>2015-04-20T14:22:15Z</time>
      </trkpt>
      <trkpt lat="43.91873" lon="5.83692">
        <ele>320.5</ele>
        <time>2015-04-20T14:22:20Z</time>
      </trkpt>
      <trkpt lat="43.9189" lon="5.83666">
        <ele>321.24</ele>
        <time>2015-04-20T14:22:26Z</time>
      </trkpt>
      <trkpt lat="43.91901" lon="5.83597">
        <ele>322.66</ele>
        <time>2015-04-20T14:22:38Z</time>
      </trkpt>
      <trkpt lat="43.91896" lon="5.835">
        <ele>325.6</ele>
        <time>2015-04-20T14:22:54Z</time>
      </trkpt>
      <trkpt lat="43.91893" lon="5.83463">
        <ele>325.83</ele>
        <time>2015-04-20T14:23:00Z</time>
      </trkpt>
      <trkpt lat="43.91905" lon="5.83374">
        <ele>328.01</ele>
        <time>2015-04-20T14:23:16Z</time>
      </trkpt>
      <trkpt lat="43.91909" lon="5.83352">
        <ele>328.84</ele>
        <time>2015-04-20T14:23:20Z</time>
      </trkpt>
      <trkpt lat="43.91942" lon="5.83315">
        <ele>329.54</ele>
        <time>2015-04-20T14:23:31Z</time>
      </trkpt>
      <trkpt lat="43.9197" lon="5.83275">
        <ele>331.72</ele>
        <time>2015-04-20T14:23:41Z</time>
      </trkpt>
      <trkpt lat="43.91974" lon="5.83209">
        <ele>333.29</ele>
        <time>2015-04-20T14:23:53Z</time>
      </trkpt>
      <trkpt lat="43.91979" lon="5.83179">
        <ele>333.5</ele>
        <time>2015-04-20T14:23:58Z</time>
      </trkpt>
      <trkpt lat="43.91985" lon="5.83162">
        <ele>334.27</ele>
        <time>2015-04-20T14:24:01Z</time>
      </trkpt>
      <trkpt lat="43.91995" lon="5.83142">
        <ele>335.33</ele>
        <time>2015-04-20T14:24:05Z</time>
      </trkpt>
      <trkpt lat="43.92041" lon="5.83072">
        <ele>338.71</ele>
        <time>2015-04-20T14:24:21Z</time>
      </trkpt>
      <trkpt lat="43.92055" lon="5.8305">
        <ele>338.64</ele>
        <time>2015-04-20T14:24:26Z</time>
      </trkpt>
      <trkpt lat="43.92064" lon="5.83029">
        <ele>338.97</ele>
        <time>2015-04-20T14:24:30Z</time>
      </trkpt>
      <trkpt lat="43.92099" lon="5.82954">
        <ele>340.67</ele>
        <time>2015-04-20T14:24:46Z</time>
      </trkpt>
      <trkpt lat="43.92107" lon="5.8294">
        <ele>341.04</ele>
        <time>2015-04-20T14:24:49Z</time>
      </trkpt>
      <trkpt lat="43.92115" lon="5.82926">
        <ele>341.48</ele>
        <time>2015-04-20T14:24:52Z</time>
      </trkpt>
      <trkpt lat="43.92122" lon="5.82904">
        <ele>342.49</ele>
        <time>2015-04-20T14:24:56Z</time>
      </trkpt>
      <trkpt lat="43.92124" lon="5.82862">
        <ele>341.87</ele>
        <time>2015-04-20T14:25:02Z</time>
      </trkpt>
      <trkpt lat="43.92146" lon="5.82826">
        <ele>342.18</ele>
        <time>2015-04-20T14:25:09Z</time>
      </trkpt>
      <trkpt lat="43.92182" lon="5.828">
        <ele>342.58</ele>
        <time>2015-04-20T14:25:17Z</time>
      </trkpt>
      <trkpt lat="43.92195" lon="5.82746">
        <ele>344.67</ele>
        <time>2015-04-20T14:25:26Z</time>
      </trkpt>
      <trkpt lat="43.92208" lon="5.82632">
        <ele>347.46</ele>
        <time>2015-04-20T14:25:42Z</time>
      </trkpt>
      <trkpt lat="43.92233" lon="5.82534">
        <ele>345.83</ele>
        <time>2015-04-20T14:25:55Z</time>
      </trkpt>
      <trkpt lat="43.92222" lon="5.82477">
        <ele>345.8</ele>
        <time>2015-04-20T14:26:02Z</time>
      </trkpt>
      <trkpt lat="43.92195" lon="5.82439">
        <ele>344.76</ele>
        <time>2015-04-20T14:26:08Z</time>
      </trkpt>
      <trkpt lat="43.92181" lon="5.82399">
        <ele>344.25</ele>
        <time>2015-04-20T14:26:13Z</time>
      </trkpt>
      <trkpt lat="43.92148" lon="5.82337">
        <ele>342.94</ele>
        <time>2015-04-20T14:26:21Z</time>
      </trkpt>
      <trkpt lat="43.92134" lon="5.82279">
        <ele>340.77</ele>
        <time>2015-04-20T14:26:27Z</time>
      </trkpt>
      <trkpt lat="43.92139" lon="5.82224">
        <ele>339.09</ele>
        <time>2015-04-20T14:26:32Z</time>
      </trkpt>
      <trkpt lat="43.92138" lon="5.82146">
        <ele>335.99</ele>
        <time>2015-04-20T14:26:39Z</time>
      </trkpt>
      <trkpt lat="43.92118" lon="5.82123">
        <ele>334.46</ele>
        <time>2015-04-20T14:26:42Z</time>
      </trkpt>
      <trkpt lat="43.92109" lon="5.82118">
        <ele>334.04</ele>
        <time>2015-04-20T14:26:43Z</time>
      </trkpt>
      <trkpt lat="43.92075" lon="5.82098">
        <ele>331.86</ele>
        <time>2015-04-20T14:26:47Z</time>
      </trkpt>
      <trkpt lat="43.92056" lon="5.82037">
        <ele>329.03</ele>
        <time>2015-04-20T14:26:53Z</time>
      </trkpt>
      <trkpt lat="43.92068" lon="5.81986">
        <ele>327.68</ele>
        <time>2015-04-20T14:26:57Z</time>
      </trkpt>
      <trkpt lat="43.92076" lon="5.81963">
        <ele>326.56</ele>
        <time>2015-04-20T14:26:59Z</time>
      </trkpt>
      <trkpt lat="43.921" lon="5.81942">
        <ele>322.22</ele>
        <time>2015-04-20T14:27:03Z</time>
      </trkpt>
      <trkpt lat="43.92132" lon="5.81961">
        <ele>320.3</ele>
        <time>2015-04-20T14:27:07Z</time>
      </trkpt>
      <trkpt lat="43.92152" lon="5.8197">
        <ele>319.14</ele>
        <time>2015-04-20T14:27:09Z</time>
      </trkpt>
      <trkpt lat="43.92206" lon="5.81943">
        <ele>316.38</ele>
        <time>2015-04-20T14:27:15Z</time>
      </trkpt>
      <trkpt lat="43.92235" lon="5.81896">
        <ele>318.15</ele>
        <time>2015-04-20T14:27:20Z</time>
      </trkpt>
      <trkpt lat="43.92249" lon="5.81874">
        <ele>318.84</ele>
        <time>2015-04-20T14:27:23Z</time>
      </trkpt>
      <trkpt lat="43.92292" lon="5.81804">
        <ele>322.37</ele>
        <time>2015-04-20T14:27:35Z</time>
      </trkpt>
      <trkpt lat="43.92325" lon="5.8176">
        <ele>325.48</ele>
        <time>2015-04-20T14:27:46Z</time>
      </trkpt>
      <trkpt lat="43.92389" lon="5.81732">
        <ele>326.85</ele>
        <time>2015-04-20T14:28:00Z</time>
      </trkpt>
      <trkpt lat="43.92461" lon="5.81737">
        <ele>325.43</ele>
        <time>2015-04-20T14:28:12Z</time>
      </trkpt>
      <trkpt lat="43.92538" lon="5.81741">
        <ele>322.41</ele>
        <time>2015-04-20T14:28:21Z</time>
      </trkpt>
      <trkpt lat="43.92626" lon="5.81739">
        <ele>319.13</ele>
        <time>2015-04-20T14:28:30Z</time>
      </trkpt>
      <trkpt lat="43.92731" lon="5.81734">
        <ele>315.96</ele>
        <time>2015-04-20T14:28:40Z</time>
      </trkpt>
      <trkpt lat="43.92816" lon="5.81731">
        <ele>312.53</ele>
        <time>2015-04-20T14:28:48Z</time>
      </trkpt>
      <trkpt lat="43.92881" lon="5.8175">
        <ele>309.22</ele>
        <time>2015-04-20T14:28:54Z</time>
      </trkpt>
      <trkpt lat="43.9298" lon="5.81782">
        <ele>305.89</ele>
        <time>2015-04-20T14:29:03Z</time>
      </trkpt>
      <trkpt lat="43.93067" lon="5.81833">
        <ele>302.48</ele>
        <time>2015-04-20T14:29:12Z</time>
      </trkpt>
      <trkpt lat="43.93081" lon="5.81848">
        <ele>301.62</ele>
        <time>2015-04-20T14:29:14Z</time>
      </trkpt>
      <trkpt lat="43.93105" lon="5.81834">
        <ele>301</ele>
        <time>2015-04-20T14:29:20Z</time>
      </trkpt>
      <trkpt lat="43.93103" lon="5.81825">
        <ele>301.3</ele>
        <time>2015-04-20T14:29:21Z</time>
      </trkpt>
      <trkpt lat="43.93096" lon="5.81808">
        <ele>300.95</ele>
        <time>2015-04-20T14:29:23Z</time>
      </trkpt>
      <trkpt lat="43.93052" lon="5.81704">
        <ele>299.52</ele>
        <time>2015-04-20T14:29:35Z</time>
      </trkpt>
      <trkpt lat="43.93044" lon="5.81652">
        <ele>297.32</ele>
        <time>2015-04-20T14:29:40Z</time>
      </trkpt>
      <trkpt lat="43.93048" lon="5.81468">
        <ele>295.19</ele>
        <time>2015-04-20T14:29:56Z</time>
      </trkpt>
      <trkpt lat="43.9305" lon="5.81435">
        <ele>294.03</ele>
        <time>2015-04-20T14:29:59Z</time>
      </trkpt>
      <trkpt lat="43.9309" lon="5.81325">
        <ele>294.43</ele>
        <time>2015-04-20T14:30:12Z</time>
      </trkpt>
      <trkpt lat="43.93137" lon="5.81207">
        <ele>297.54</ele>
        <time>2015-04-20T14:30:28Z</time>
      </trkpt>
      <trkpt lat="43.93177" lon="5.81111">
        <ele>300.35</ele>
        <time>2015-04-20T14:30:43Z</time>
      </trkpt>
      <trkpt lat="43.93217" lon="5.81013">
        <ele>299.42</ele>
        <time>2015-04-20T14:30:56Z</time>
      </trkpt>
      <trkpt lat="43.93285" lon="5.80869">
        <ele>298.38</ele>
        <time>2015-04-20T14:31:11Z</time>
      </trkpt>
      <trkpt lat="43.93351" lon="5.8075">
        <ele>296.47</ele>
        <time>2015-04-20T14:31:26Z</time>
      </trkpt>
      <trkpt lat="43.93417" lon="5.80615">
        <ele>297.56</ele>
        <time>2015-04-20T14:31:42Z</time>
      </trkpt>
      <trkpt lat="43.93442" lon="5.80531">
        <ele>294.3</ele>
        <time>2015-04-20T14:31:51Z</time>
      </trkpt>
      <trkpt lat="43.93495" lon="5.80401">
        <ele>292.92</ele>
        <time>2015-04-20T14:32:06Z</time>
      </trkpt>
      <trkpt lat="43.93567" lon="5.80311">
        <ele>293.91</ele>
        <time>2015-04-20T14:32:20Z</time>
      </trkpt>
      <trkpt lat="43.93651" lon="5.80249">
        <ele>293.8</ele>
        <time>2015-04-20T14:32:34Z</time>
      </trkpt>
      <trkpt lat="43.93739" lon="5.80151">
        <ele>295.87</ele>
        <time>2015-04-20T14:32:51Z</time>
      </trkpt>
      <trkpt lat="43.93759" lon="5.80118">
        <ele>296.49</ele>
        <time>2015-04-20T14:32:56Z</time>
      </trkpt>
      <trkpt lat="43.93807" lon="5.79983">
        <ele>298.12</ele>
        <time>2015-04-20T14:33:15Z</time>
      </trkpt>
      <trkpt lat="43.93862" lon="5.79881">
        <ele>301.32</ele>
        <time>2015-04-20T14:33:34Z</time>
      </trkpt>
      <trkpt lat="43.93915" lon="5.79813">
        <ele>303.6</ele>
        <time>2015-04-20T14:33:48Z</time>
      </trkpt>
      <trkpt lat="43.93978" lon="5.79768">
        <ele>305.9</ele>
        <time>2015-04-20T14:34:02Z</time>
      </trkpt>
      <trkpt lat="43.93996" lon="5.79754">
        <ele>307.33</ele>
        <time>2015-04-20T14:34:06Z</time>
      </trkpt>
      <trkpt lat="43.94064" lon="5.79706">
        <ele>310</ele>
        <time>2015-04-20T14:34:20Z</time>
      </trkpt>
      <trkpt lat="43.94137" lon="5.79655">
        <ele>313.04</ele>
        <time>2015-04-20T14:34:36Z</time>
      </trkpt>
      <trkpt lat="43.94188" lon="5.79609">
        <ele>316.24</ele>
        <time>2015-04-20T14:34:48Z</time>
      </trkpt>
      <trkpt lat="43.94251" lon="5.79549">
        <ele>319.31</ele>
        <time>2015-04-20T14:35:03Z</time>
      </trkpt>
      <trkpt lat="43.94282" lon="5.79517">
        <ele>320.71</ele>
        <time>2015-04-20T14:35:10Z</time>
      </trkpt>
      <trkpt lat="43.94326" lon="5.79429">
        <ele>323.34</ele>
        <time>2015-04-20T14:35:24Z</time>
      </trkpt>
      <trkpt lat="43.94373" lon="5.79346">
        <ele>325.85</ele>
        <time>2015-04-20T14:35:38Z</time>
      </trkpt>
      <trkpt lat="43.94408" lon="5.79303">
        <ele>328.95</ele>
        <time>2015-04-20T14:35:47Z</time>
      </trkpt>
      <trkpt lat="43.94445" lon="5.79265">
        <ele>331.01</ele>
        <time>2015-04-20T14:35:56Z</time>
      </trkpt>
      <trkpt lat="43.94488" lon="5.79223">
        <ele>334.33</ele>
        <time>2015-04-20T14:36:07Z</time>
      </trkpt>
      <trkpt lat="43.94534" lon="5.79181">
        <ele>337.05</ele>
        <time>2015-04-20T14:36:19Z</time>
      </trkpt>
      <trkpt lat="43.94541" lon="5.79175">
        <ele>337.48</ele>
        <time>2015-04-20T14:36:21Z</time>
      </trkpt>
      <trkpt lat="43.94549" lon="5.7917">
        <ele>337.75</ele>
        <time>2015-04-20T14:36:23Z</time>
      </trkpt>
      <trkpt lat="43.9457" lon="5.79163">
        <ele>337.76</ele>
        <time>2015-04-20T14:36:28Z</time>
      </trkpt>
      <trkpt lat="43.94615" lon="5.79158">
        <ele>341.23</ele>
        <time>2015-04-20T14:36:38Z</time>
      </trkpt>
      <trkpt lat="43.94665" lon="5.79156">
        <ele>344.39</ele>
        <time>2015-04-20T14:36:49Z</time>
      </trkpt>
      <trkpt lat="43.94712" lon="5.79145">
        <ele>346.95</ele>
        <time>2015-04-20T14:36:59Z</time>
      </trkpt>
      <trkpt lat="43.94765" lon="5.79126">
        <ele>350.56</ele>
        <time>2015-04-20T14:37:10Z</time>
      </trkpt>
      <trkpt lat="43.94838" lon="5.79102">
        <ele>353.73</ele>
        <time>2015-04-20T14:37:24Z</time>
      </trkpt>
      <trkpt lat="43.94858" lon="5.79098">
        <ele>354.89</ele>
        <time>2015-04-20T14:37:28Z</time>
      </trkpt>
      <trkpt lat="43.94916" lon="5.7909">
        <ele>357.88</ele>
        <time>2015-04-20T14:37:40Z</time>
      </trkpt>
      <trkpt lat="43.94941" lon="5.79089">
        <ele>359.29</ele>
        <time>2015-04-20T14:37:46Z</time>
      </trkpt>
      <trkpt lat="43.95006" lon="5.79081">
        <ele>360.27</ele>
        <time>2015-04-20T14:37:58Z</time>
      </trkpt>
      <trkpt lat="43.95093" lon="5.79067">
        <ele>360.92</ele>
        <time>2015-04-20T14:38:10Z</time>
      </trkpt>
      <trkpt lat="43.95187" lon="5.79025">
        <ele>362.28</ele>
        <time>2015-04-20T14:38:24Z</time>
      </trkpt>
      <trkpt lat="43.95224" lon="5.78996">
        <ele>363.36</ele>
        <time>2015-04-20T14:38:31Z</time>
      </trkpt>
      <trkpt lat="43.95275" lon="5.78912">
        <ele>366.22</ele>
        <time>2015-04-20T14:38:44Z</time>
      </trkpt>
      <trkpt lat="43.95292" lon="5.78886">
        <ele>367.08</ele>
        <time>2015-04-20T14:38:48Z</time>
      </trkpt>
      <trkpt lat="43.95301" lon="5.78874">
        <ele>367.14</ele>
        <time>2015-04-20T14:38:50Z</time>
      </trkpt>
      <trkpt lat="43.9537" lon="5.78823">
        <ele>365.18</ele>
        <time>2015-04-20T14:39:01Z</time>
      </trkpt>
      <trkpt lat="43.95392" lon="5.78785">
        <ele>365.6</ele>
        <time>2015-04-20T14:39:06Z</time>
      </trkpt>
      <trkpt lat="43.95403" lon="5.78744">
        <ele>365.98</ele>
        <time>2015-04-20T14:39:11Z</time>
      </trkpt>
      <trkpt lat="43.95409" lon="5.78729">
        <ele>365.96</ele>
        <time>2015-04-20T14:39:13Z</time>
      </trkpt>
      <trkpt lat="43.95448" lon="5.78648">
        <ele>367.34</ele>
        <time>2015-04-20T14:39:25Z</time>
      </trkpt>
      <trkpt lat="43.95498" lon="5.78541">
        <ele>369.97</ele>
        <time>2015-04-20T14:39:40Z</time>
      </trkpt>
      <trkpt lat="43.95502" lon="5.78535">
        <ele>369.96</ele>
        <time>2015-04-20T14:39:41Z</time>
      </trkpt>
      <trkpt lat="43.95554" lon="5.7848">
        <ele>370.39</ele>
        <time>2015-04-20T14:39:52Z</time>
      </trkpt>
      <trkpt lat="43.95595" lon="5.78452">
        <ele>370.62</ele>
        <time>2015-04-20T14:40:00Z</time>
      </trkpt>
      <trkpt lat="43.95647" lon="5.78432">
        <ele>372.72</ele>
        <time>2015-04-20T14:40:11Z</time>
      </trkpt>
      <trkpt lat="43.95717" lon="5.78418">
        <ele>371.93</ele>
        <time>2015-04-20T14:40:23Z</time>
      </trkpt>
      <trkpt lat="43.95725" lon="5.78415">
        <ele>371.73</ele>
        <time>2015-04-20T14:40:24Z</time>
      </trkpt>
      <trkpt lat="43.95756" lon="5.78397">
        <ele>370.34</ele>
        <time>2015-04-20T14:40:28Z</time>
      </trkpt>
      <trkpt lat="43.95768" lon="5.78386">
        <ele>369.47</ele>
        <time>2015-04-20T14:40:30Z</time>
      </trkpt>
      <trkpt lat="43.95801" lon="5.78349">
        <ele>368.52</ele>
        <time>2015-04-20T14:40:36Z</time>
      </trkpt>
      <trkpt lat="43.95834" lon="5.78287">
        <ele>367.83</ele>
        <time>2015-04-20T14:40:45Z</time>
      </trkpt>
      <trkpt lat="43.95869" lon="5.78184">
        <ele>365.64</ele>
        <time>2015-04-20T14:41:00Z</time>
      </trkpt>
      <trkpt lat="43.95883" lon="5.78142">
        <ele>362.25</ele>
        <time>2015-04-20T14:41:11Z</time>
      </trkpt>
      <trkpt lat="43.9589" lon="5.78126">
        <ele>361.73</ele>
        <time>2015-04-20T14:41:15Z</time>
      </trkpt>
      <trkpt lat="43.9591" lon="5.781">
        <ele>360.94</ele>
        <time>2015-04-20T14:41:21Z</time>
      </trkpt>
      <trkpt lat="43.95944" lon="5.7809">
        <ele>356.67</ele>
        <time>2015-04-20T14:41:30Z</time>
      </trkpt>
      <trkpt lat="43.9595" lon="5.78092">
        <ele>356.25</ele>
        <time>2015-04-20T14:41:34Z</time>
      </trkpt>
      <trkpt lat="43.95956" lon="5.78084">
        <ele>355.71</ele>
        <time>2015-04-20T14:41:38Z</time>
      </trkpt>
      <trkpt lat="43.95973" lon="5.78061">
        <ele>355.4</ele>
        <time>2015-04-20T14:41:44Z</time>
      </trkpt>
      <trkpt lat="43.95987" lon="5.78046">
        <ele>355.28</ele>
        <time>2015-04-20T14:41:48Z</time>
      </trkpt>
      <trkpt lat="43.96001" lon="5.7803">
        <ele>355.25</ele>
        <time>2015-04-20T14:41:51Z</time>
      </trkpt>
      <trkpt lat="43.96048" lon="5.77983">
        <ele>353</ele>
        <time>2015-04-20T14:42:00Z</time>
      </trkpt>
      <trkpt lat="43.96084" lon="5.77929">
        <ele>353.45</ele>
        <time>2015-04-20T14:42:11Z</time>
      </trkpt>
      <trkpt lat="43.96108" lon="5.7789">
        <ele>356.46</ele>
        <time>2015-04-20T14:42:24Z</time>
      </trkpt>
      <trkpt lat="43.96112" lon="5.77874">
        <ele>356.75</ele>
        <time>2015-04-20T14:42:36Z</time>
      </trkpt>
      <trkpt lat="43.96116" lon="5.77862">
        <ele>357.79</ele>
        <time>2015-04-20T14:42:41Z</time>
      </trkpt>
      <trkpt lat="43.96121" lon="5.77841">
        <ele>359.03</ele>
        <time>2015-04-20T14:42:48Z</time>
      </trkpt>
      <trkpt lat="43.96145" lon="5.77801">
        <ele>362.01</ele>
        <time>2015-04-20T14:43:02Z</time>
      </trkpt>
      <trkpt lat="43.96168" lon="5.7779">
        <ele>365.14</ele>
        <time>2015-04-20T14:43:12Z</time>
      </trkpt>
      <trkpt lat="43.96199" lon="5.77812">
        <ele>368.14</ele>
        <time>2015-04-20T14:43:25Z</time>
      </trkpt>
      <trkpt lat="43.96213" lon="5.77831">
        <ele>370.49</ele>
        <time>2015-04-20T14:43:32Z</time>
      </trkpt>
      <trkpt lat="43.96235" lon="5.77873">
        <ele>371.95</ele>
        <time>2015-04-20T14:43:44Z</time>
      </trkpt>
      <trkpt lat="43.96272" lon="5.77926">
        <ele>374.73</ele>
        <time>2015-04-20T14:43:57Z</time>
      </trkpt>
      <trkpt lat="43.96318" lon="5.7799">
        <ele>377.65</ele>
        <time>2015-04-20T14:44:13Z</time>
      </trkpt>
      <trkpt lat="43.96361" lon="5.78029">
        <ele>380.7</ele>
        <time>2015-04-20T14:44:25Z</time>
      </trkpt>
      <trkpt lat="43.96412" lon="5.78065">
        <ele>383.93</ele>
        <time>2015-04-20T14:44:39Z</time>
      </trkpt>
      <trkpt lat="43.96461" lon="5.78084">
        <ele>387.12</ele>
        <time>2015-04-20T14:44:52Z</time>
      </trkpt>
      <trkpt lat="43.96506" lon="5.78102">
        <ele>390.13</ele>
        <time>2015-04-20T14:45:04Z</time>
      </trkpt>
      <trkpt lat="43.96559" lon="5.78117">
        <ele>392.78</ele>
        <time>2015-04-20T14:45:17Z</time>
      </trkpt>
      <trkpt lat="43.96599" lon="5.78119">
        <ele>395.33</ele>
        <time>2015-04-20T14:45:28Z</time>
      </trkpt>
      <trkpt lat="43.96609" lon="5.78111">
        <ele>395.78</ele>
        <time>2015-04-20T14:45:31Z</time>
      </trkpt>
      <trkpt lat="43.96642" lon="5.78039">
        <ele>398.68</ele>
        <time>2015-04-20T14:45:46Z</time>
      </trkpt>
      <trkpt lat="43.96683" lon="5.77998">
        <ele>401.71</ele>
        <time>2015-04-20T14:45:59Z</time>
      </trkpt>
      <trkpt lat="43.96695" lon="5.7799">
        <ele>402.77</ele>
        <time>2015-04-20T14:46:02Z</time>
      </trkpt>
      <trkpt lat="43.96749" lon="5.77934">
        <ele>406.18</ele>
        <time>2015-04-20T14:46:16Z</time>
      </trkpt>
      <trkpt lat="43.96793" lon="5.7788">
        <ele>409.37</ele>
        <time>2015-04-20T14:46:29Z</time>
      </trkpt>
      <trkpt lat="43.96828" lon="5.77836">
        <ele>412.49</ele>
        <time>2015-04-20T14:46:40Z</time>
      </trkpt>
      <trkpt lat="43.96877" lon="5.77783">
        <ele>415.63</ele>
        <time>2015-04-20T14:46:55Z</time>
      </trkpt>
      <trkpt lat="43.96916" lon="5.77745">
        <ele>418.74</ele>
        <time>2015-04-20T14:47:07Z</time>
      </trkpt>
      <trkpt lat="43.9696" lon="5.77701">
        <ele>421.78</ele>
        <time>2015-04-20T14:47:21Z</time>
      </trkpt>
      <trkpt lat="43.96993" lon="5.77672">
        <ele>424.04</ele>
        <time>2015-04-20T14:47:32Z</time>
      </trkpt>
      <trkpt lat="43.96997" lon="5.77701">
        <ele>425.55</ele>
        <time>2015-04-20T14:47:40Z</time>
      </trkpt>
      <trkpt lat="43.96995" lon="5.77706">
        <ele>425.96</ele>
        <time>2015-04-20T14:47:41Z</time>
      </trkpt>
      <trkpt lat="43.96974" lon="5.77785">
        <ele>429.36</ele>
        <time>2015-04-20T14:47:57Z</time>
      </trkpt>
      <trkpt lat="43.96957" lon="5.77869">
        <ele>432.42</ele>
        <time>2015-04-20T14:48:13Z</time>
      </trkpt>
      <trkpt lat="43.96946" lon="5.77918">
        <ele>433.66</ele>
        <time>2015-04-20T14:48:22Z</time>
      </trkpt>
      <trkpt lat="43.96947" lon="5.7793">
        <ele>434.24</ele>
        <time>2015-04-20T14:48:24Z</time>
      </trkpt>
      <trkpt lat="43.9697" lon="5.77955">
        <ele>436.09</ele>
        <time>2015-04-20T14:48:32Z</time>
      </trkpt>
      <trkpt lat="43.96982" lon="5.77947">
        <ele>436.37</ele>
        <time>2015-04-20T14:48:35Z</time>
      </trkpt>
      <trkpt lat="43.97005" lon="5.77922">
        <ele>437.85</ele>
        <time>2015-04-20T14:48:42Z</time>
      </trkpt>
      <trkpt lat="43.97051" lon="5.7787">
        <ele>441.17</ele>
        <time>2015-04-20T14:48:57Z</time>
      </trkpt>
      <trkpt lat="43.97083" lon="5.77833">
        <ele>444.21</ele>
        <time>2015-04-20T14:49:08Z</time>
      </trkpt>
      <trkpt lat="43.97119" lon="5.77785">
        <ele>447.27</ele>
        <time>2015-04-20T14:49:21Z</time>
      </trkpt>
      <trkpt lat="43.97158" lon="5.7773">
        <ele>450.47</ele>
        <time>2015-04-20T14:49:35Z</time>
      </trkpt>
      <trkpt lat="43.97167" lon="5.77719">
        <ele>451.73</ele>
        <time>2015-04-20T14:49:38Z</time>
      </trkpt>
      <trkpt lat="43.97215" lon="5.77653">
        <ele>454.88</ele>
        <time>2015-04-20T14:49:56Z</time>
      </trkpt>
      <trkpt lat="43.97263" lon="5.77588">
        <ele>457.31</ele>
        <time>2015-04-20T14:50:15Z</time>
      </trkpt>
      <trkpt lat="43.97301" lon="5.7759">
        <ele>459.37</ele>
        <time>2015-04-20T14:50:26Z</time>
      </trkpt>
      <trkpt lat="43.97338" lon="5.77622">
        <ele>460.86</ele>
        <time>2015-04-20T14:50:38Z</time>
      </trkpt>
      <trkpt lat="43.97346" lon="5.7763">
        <ele>461.51</ele>
        <time>2015-04-20T14:50:41Z</time>
      </trkpt>
      <trkpt lat="43.97393" lon="5.77672">
        <ele>464.36</ele>
        <time>2015-04-20T14:50:55Z</time>
      </trkpt>
      <trkpt lat="43.97435" lon="5.77703">
        <ele>467.45</ele>
        <time>2015-04-20T14:51:07Z</time>
      </trkpt>
      <trkpt lat="43.97483" lon="5.77718">
        <ele>469.26</ele>
        <time>2015-04-20T14:51:19Z</time>
      </trkpt>
      <trkpt lat="43.97532" lon="5.77723">
        <ele>472.56</ele>
        <time>2015-04-20T14:51:32Z</time>
      </trkpt>
      <trkpt lat="43.9757" lon="5.7769">
        <ele>475.11</ele>
        <time>2015-04-20T14:51:44Z</time>
      </trkpt>
      <trkpt lat="43.97612" lon="5.77636">
        <ele>478.25</ele>
        <time>2015-04-20T14:51:59Z</time>
      </trkpt>
      <trkpt lat="43.97657" lon="5.7759">
        <ele>481.01</ele>
        <time>2015-04-20T14:52:14Z</time>
      </trkpt>
      <trkpt lat="43.97699" lon="5.77552">
        <ele>484.23</ele>
        <time>2015-04-20T14:52:28Z</time>
      </trkpt>
      <trkpt lat="43.97739" lon="5.77496">
        <ele>486.81</ele>
        <time>2015-04-20T14:52:44Z</time>
      </trkpt>
      <trkpt lat="43.97774" lon="5.77471">
        <ele>488.56</ele>
        <time>2015-04-20T14:52:56Z</time>
      </trkpt>
      <trkpt lat="43.97815" lon="5.77513">
        <ele>491.53</ele>
        <time>2015-04-20T14:53:10Z</time>
      </trkpt>
      <trkpt lat="43.97843" lon="5.77589">
        <ele>494.91</ele>
        <time>2015-04-20T14:53:26Z</time>
      </trkpt>
      <trkpt lat="43.97883" lon="5.77665">
        <ele>496.39</ele>
        <time>2015-04-20T14:53:41Z</time>
      </trkpt>
      <trkpt lat="43.97919" lon="5.7775">
        <ele>496.17</ele>
        <time>2015-04-20T14:53:56Z</time>
      </trkpt>
      <trkpt lat="43.97925" lon="5.7776">
        <ele>496.2</ele>
        <time>2015-04-20T14:53:58Z</time>
      </trkpt>
      <trkpt lat="43.97947" lon="5.77772">
        <ele>496.9</ele>
        <time>2015-04-20T14:54:03Z</time>
      </trkpt>
      <trkpt lat="43.97968" lon="5.77777">
        <ele>496.95</ele>
        <time>2015-04-20T14:54:07Z</time>
      </trkpt>
      <trkpt lat="43.97999" lon="5.7781">
        <ele>496.51</ele>
        <time>2015-04-20T14:54:14Z</time>
      </trkpt>
      <trkpt lat="43.98013" lon="5.77834">
        <ele>496.24</ele>
        <time>2015-04-20T14:54:18Z</time>
      </trkpt>
      <trkpt lat="43.98049" lon="5.77828">
        <ele>496.8</ele>
        <time>2015-04-20T14:54:26Z</time>
      </trkpt>
      <trkpt lat="43.98052" lon="5.7782">
        <ele>496.84</ele>
        <time>2015-04-20T14:54:27Z</time>
      </trkpt>
      <trkpt lat="43.98104" lon="5.77708">
        <ele>496.52</ele>
        <time>2015-04-20T14:54:40Z</time>
      </trkpt>
      <trkpt lat="43.98143" lon="5.77622">
        <ele>493.65</ele>
        <time>2015-04-20T14:54:50Z</time>
      </trkpt>
      <trkpt lat="43.98209" lon="5.77548">
        <ele>492.51</ele>
        <time>2015-04-20T14:55:01Z</time>
      </trkpt>
      <trkpt lat="43.98266" lon="5.77495">
        <ele>490.62</ele>
        <time>2015-04-20T14:55:11Z</time>
      </trkpt>
      <trkpt lat="43.98303" lon="5.77448">
        <ele>490.16</ele>
        <time>2015-04-20T14:55:18Z</time>
      </trkpt>
      <trkpt lat="43.98353" lon="5.77413">
        <ele>489.95</ele>
        <time>2015-04-20T14:55:26Z</time>
      </trkpt>
      <trkpt lat="43.98377" lon="5.77412">
        <ele>488.55</ele>
        <time>2015-04-20T14:55:30Z</time>
      </trkpt>
      <trkpt lat="43.98385" lon="5.7745">
        <ele>487.01</ele>
        <time>2015-04-20T14:55:34Z</time>
      </trkpt>
      <trkpt lat="43.98391" lon="5.77523">
        <ele>486.94</ele>
        <time>2015-04-20T14:55:42Z</time>
      </trkpt>
      <trkpt lat="43.98402" lon="5.77555">
        <ele>487.7</ele>
        <time>2015-04-20T14:55:47Z</time>
      </trkpt>
      <trkpt lat="43.98459" lon="5.77645">
        <ele>488.58</ele>
        <time>2015-04-20T14:56:02Z</time>
      </trkpt>
      <trkpt lat="43.98494" lon="5.77638">
        <ele>488.54</ele>
        <time>2015-04-20T14:56:08Z</time>
      </trkpt>
      <trkpt lat="43.98532" lon="5.77589">
        <ele>487.45</ele>
        <time>2015-04-20T14:56:14Z</time>
      </trkpt>
      <trkpt lat="43.98573" lon="5.77568">
        <ele>486.53</ele>
        <time>2015-04-20T14:56:19Z</time>
      </trkpt>
      <trkpt lat="43.98638" lon="5.77557">
        <ele>484.62</ele>
        <time>2015-04-20T14:56:26Z</time>
      </trkpt>
      <trkpt lat="43.98677" lon="5.77598">
        <ele>480.85</ele>
        <time>2015-04-20T14:56:32Z</time>
      </trkpt>
      <trkpt lat="43.98677" lon="5.77609">
        <ele>480.89</ele>
        <time>2015-04-20T14:56:33Z</time>
      </trkpt>
      <trkpt lat="43.98678" lon="5.7763">
        <ele>481.26</ele>
        <time>2015-04-20T14:56:35Z</time>
      </trkpt>
      <trkpt lat="43.9872" lon="5.77699">
        <ele>478.95</ele>
        <time>2015-04-20T14:56:43Z</time>
      </trkpt>
      <trkpt lat="43.98738" lon="5.77727">
        <ele>477.79</ele>
        <time>2015-04-20T14:56:46Z</time>
      </trkpt>
      <trkpt lat="43.98793" lon="5.77826">
        <ele>478.4</ele>
        <time>2015-04-20T14:56:58Z</time>
      </trkpt>
      <trkpt lat="43.98872" lon="5.77925">
        <ele>475.47</ele>
        <time>2015-04-20T14:57:09Z</time>
      </trkpt>
      <trkpt lat="43.98888" lon="5.77944">
        <ele>475.16</ele>
        <time>2015-04-20T14:57:11Z</time>
      </trkpt>
      <trkpt lat="43.98912" lon="5.78004">
        <ele>474.03</ele>
        <time>2015-04-20T14:57:16Z</time>
      </trkpt>
      <trkpt lat="43.98925" lon="5.78092">
        <ele>474.78</ele>
        <time>2015-04-20T14:57:23Z</time>
      </trkpt>
      <trkpt lat="43.98943" lon="5.78133">
        <ele>475.48</ele>
        <time>2015-04-20T14:57:27Z</time>
      </trkpt>
      <trkpt lat="43.98964" lon="5.78166">
        <ele>476.27</ele>
        <time>2015-04-20T14:57:31Z</time>
      </trkpt>
      <trkpt lat="43.99003" lon="5.78196">
        <ele>477</ele>
        <time>2015-04-20T14:57:37Z</time>
      </trkpt>
      <trkpt lat="43.99018" lon="5.78201">
        <ele>477.37</ele>
        <time>2015-04-20T14:57:39Z</time>
      </trkpt>
      <trkpt lat="43.99053" lon="5.78233">
        <ele>475.9</ele>
        <time>2015-04-20T14:57:44Z</time>
      </trkpt>
      <trkpt lat="43.99122" lon="5.78331">
        <ele>477.35</ele>
        <time>2015-04-20T14:57:57Z</time>
      </trkpt>
      <trkpt lat="43.99126" lon="5.78339">
        <ele>477.26</ele>
        <time>2015-04-20T14:57:58Z</time>
      </trkpt>
      <trkpt lat="43.99134" lon="5.78384">
        <ele>477.43</ele>
        <time>2015-04-20T14:58:03Z</time>
      </trkpt>
      <trkpt lat="43.99175" lon="5.78484">
        <ele>479.28</ele>
        <time>2015-04-20T14:58:15Z</time>
      </trkpt>
      <trkpt lat="43.9921" lon="5.78538">
        <ele>478.51</ele>
        <time>2015-04-20T14:58:22Z</time>
      </trkpt>
      <trkpt lat="43.99268" lon="5.78549">
        <ele>477.24</ele>
        <time>2015-04-20T14:58:29Z</time>
      </trkpt>
      <trkpt lat="43.99286" lon="5.78544">
        <ele>477.08</ele>
        <time>2015-04-20T14:58:31Z</time>
      </trkpt>
      <trkpt lat="43.99399" lon="5.78502">
        <ele>474.73</ele>
        <time>2015-04-20T14:58:46Z</time>
      </trkpt>
      <trkpt lat="43.99458" lon="5.78482">
        <ele>475.17</ele>
        <time>2015-04-20T14:58:55Z</time>
      </trkpt>
      <trkpt lat="43.99496" lon="5.78511">
        <ele>474.94</ele>
        <time>2015-04-20T14:59:02Z</time>
      </trkpt>
      <trkpt lat="43.99492" lon="5.78574">
        <ele>476.01</ele>
        <time>2015-04-20T14:59:10Z</time>
      </trkpt>
      <trkpt lat="43.99451" lon="5.78669">
        <ele>478.58</ele>
        <time>2015-04-20T14:59:22Z</time>
      </trkpt>
      <trkpt lat="43.99428" lon="5.78733">
        <ele>480.38</ele>
        <time>2015-04-20T14:59:29Z</time>
      </trkpt>
      <trkpt lat="43.99427" lon="5.78771">
        <ele>481.13</ele>
        <time>2015-04-20T14:59:33Z</time>
      </trkpt>
      <trkpt lat="43.99438" lon="5.78815">
        <ele>482.71</ele>
        <time>2015-04-20T14:59:38Z</time>
      </trkpt>
      <trkpt lat="43.99487" lon="5.78918">
        <ele>485.88</ele>
        <time>2015-04-20T14:59:53Z</time>
      </trkpt>
      <trkpt lat="43.99509" lon="5.78969">
        <ele>487.76</ele>
        <time>2015-04-20T15:00:01Z</time>
      </trkpt>
      <trkpt lat="43.99553" lon="5.78998">
        <ele>490.18</ele>
        <time>2015-04-20T15:00:10Z</time>
      </trkpt>
      <trkpt lat="43.99631" lon="5.79016">
        <ele>493.44</ele>
        <time>2015-04-20T15:00:24Z</time>
      </trkpt>
      <trkpt lat="43.99685" lon="5.7902">
        <ele>495.18</ele>
        <time>2015-04-20T15:00:34Z</time>
      </trkpt>
      <trkpt lat="43.99706" lon="5.79028">
        <ele>496.11</ele>
        <time>2015-04-20T15:00:38Z</time>
      </trkpt>
      <trkpt lat="43.99764" lon="5.79086">
        <ele>495.77</ele>
        <time>2015-04-20T15:00:50Z</time>
      </trkpt>
      <trkpt lat="43.99835" lon="5.79135">
        <ele>497.24</ele>
        <time>2015-04-20T15:01:04Z</time>
      </trkpt>
      <trkpt lat="43.99904" lon="5.79141">
        <ele>499.1</ele>
        <time>2015-04-20T15:01:16Z</time>
      </trkpt>
      <trkpt lat="44.00002" lon="5.79134">
        <ele>499.74</ele>
        <time>2015-04-20T15:01:30Z</time>
      </trkpt>
      <trkpt lat="44.00069" lon="5.7913">
        <ele>499.45</ele>
        <time>2015-04-20T15:01:41Z</time>
      </trkpt>
      <trkpt lat="44.00117" lon="5.79149">
        <ele>500.73</ele>
        <time>2015-04-20T15:01:50Z</time>
      </trkpt>
      <trkpt lat="44.00201" lon="5.7915">
        <ele>503.41</ele>
        <time>2015-04-20T15:02:05Z</time>
      </trkpt>
      <trkpt lat="44.00242" lon="5.79157">
        <ele>501.91</ele>
        <time>2015-04-20T15:02:11Z</time>
      </trkpt>
      <trkpt lat="44.00271" lon="5.79178">
        <ele>500.71</ele>
        <time>2015-04-20T15:02:15Z</time>
      </trkpt>
      <trkpt lat="44.00347" lon="5.79257">
        <ele>501.9</ele>
        <time>2015-04-20T15:02:28Z</time>
      </trkpt>
      <trkpt lat="44.00382" lon="5.79301">
        <ele>502.54</ele>
        <time>2015-04-20T15:02:36Z</time>
      </trkpt>
      <trkpt lat="44.00391" lon="5.79312">
        <ele>503.06</ele>
        <time>2015-04-20T15:02:38Z</time>
      </trkpt>
      <trkpt lat="44.00411" lon="5.79329">
        <ele>504.08</ele>
        <time>2015-04-20T15:02:43Z</time>
      </trkpt>
      <trkpt lat="44.005" lon="5.79338">
        <ele>506.15</ele>
        <time>2015-04-20T15:02:57Z</time>
      </trkpt>
      <trkpt lat="44.00601" lon="5.79329">
        <ele>508.26</ele>
        <time>2015-04-20T15:03:13Z</time>
      </trkpt>
      <trkpt lat="44.00623" lon="5.79321">
        <ele>509.26</ele>
        <time>2015-04-20T15:03:17Z</time>
      </trkpt>
      <trkpt lat="44.00665" lon="5.79288">
        <ele>513.08</ele>
        <time>2015-04-20T15:03:26Z</time>
      </trkpt>
      <trkpt lat="44.00696" lon="5.7926">
        <ele>515.55</ele>
        <time>2015-04-20T15:03:33Z</time>
      </trkpt>
      <trkpt lat="44.00711" lon="5.79251">
        <ele>515.73</ele>
        <time>2015-04-20T15:03:36Z</time>
      </trkpt>
      <trkpt lat="44.00731" lon="5.7925">
        <ele>516.21</ele>
        <time>2015-04-20T15:03:40Z</time>
      </trkpt>
      <trkpt lat="44.00777" lon="5.79292">
        <ele>516.44</ele>
        <time>2015-04-20T15:03:51Z</time>
      </trkpt>
      <trkpt lat="44.00792" lon="5.79307">
        <ele>515.3</ele>
        <time>2015-04-20T15:03:56Z</time>
      </trkpt>
      <trkpt lat="44.00816" lon="5.79348">
        <ele>512.18</ele>
        <time>2015-04-20T15:04:04Z</time>
      </trkpt>
      <trkpt lat="44.00824" lon="5.794">
        <ele>510.57</ele>
        <time>2015-04-20T15:04:09Z</time>
      </trkpt>
      <trkpt lat="44.0084" lon="5.79439">
        <ele>509.62</ele>
        <time>2015-04-20T15:04:13Z</time>
      </trkpt>
      <trkpt lat="44.00852" lon="5.79479">
        <ele>508.97</ele>
        <time>2015-04-20T15:04:17Z</time>
      </trkpt>
      <trkpt lat="44.0086" lon="5.79526">
        <ele>509.18</ele>
        <time>2015-04-20T15:04:22Z</time>
      </trkpt>
      <trkpt lat="44.00857" lon="5.79566">
        <ele>509.84</ele>
        <time>2015-04-20T15:04:27Z</time>
      </trkpt>
      <trkpt lat="44.00853" lon="5.79585">
        <ele>510.3</ele>
        <time>2015-04-20T15:04:30Z</time>
      </trkpt>
      <trkpt lat="44.00802" lon="5.79638">
        <ele>508.76</ele>
        <time>2015-04-20T15:04:41Z</time>
      </trkpt>
      <trkpt lat="44.00788" lon="5.7965">
        <ele>508.21</ele>
        <time>2015-04-20T15:04:43Z</time>
      </trkpt>
      <trkpt lat="44.00768" lon="5.79673">
        <ele>506.87</ele>
        <time>2015-04-20T15:04:46Z</time>
      </trkpt>
      <trkpt lat="44.00716" lon="5.79762">
        <ele>506.42</ele>
        <time>2015-04-20T15:04:57Z</time>
      </trkpt>
      <trkpt lat="44.00662" lon="5.79856">
        <ele>505.97</ele>
        <time>2015-04-20T15:05:10Z</time>
      </trkpt>
      <trkpt lat="44.00658" lon="5.79863">
        <ele>505.93</ele>
        <time>2015-04-20T15:05:11Z</time>
      </trkpt>
      <trkpt lat="44.00609" lon="5.79994">
        <ele>504</ele>
        <time>2015-04-20T15:05:26Z</time>
      </trkpt>
      <trkpt lat="44.00605" lon="5.80004">
        <ele>503.9</ele>
        <time>2015-04-20T15:05:27Z</time>
      </trkpt>
      <trkpt lat="44.0054" lon="5.80097">
        <ele>502.91</ele>
        <time>2015-04-20T15:05:39Z</time>
      </trkpt>
      <trkpt lat="44.00463" lon="5.80147">
        <ele>502.76</ele>
        <time>2015-04-20T15:05:52Z</time>
      </trkpt>
      <trkpt lat="44.00449" lon="5.80154">
        <ele>502.64</ele>
        <time>2015-04-20T15:05:54Z</time>
      </trkpt>
      <trkpt lat="44.00415" lon="5.80164">
        <ele>502.91</ele>
        <time>2015-04-20T15:05:59Z</time>
      </trkpt>
      <trkpt lat="44.0038" lon="5.80161">
        <ele>502.03</ele>
        <time>2015-04-20T15:06:04Z</time>
      </trkpt>
      <trkpt lat="44.00326" lon="5.80153">
        <ele>498.5</ele>
        <time>2015-04-20T15:06:11Z</time>
      </trkpt>
      <trkpt lat="44.00232" lon="5.80145">
        <ele>495.11</ele>
        <time>2015-04-20T15:06:21Z</time>
      </trkpt>
      <trkpt lat="44.00184" lon="5.80145">
        <ele>492.05</ele>
        <time>2015-04-20T15:06:26Z</time>
      </trkpt>
      <trkpt lat="44.00112" lon="5.80139">
        <ele>489.1</ele>
        <time>2015-04-20T15:06:33Z</time>
      </trkpt>
      <trkpt lat="43.99993" lon="5.80128">
        <ele>486.05</ele>
        <time>2015-04-20T15:06:44Z</time>
      </trkpt>
      <trkpt lat="43.9995" lon="5.80118">
        <ele>482.97</ele>
        <time>2015-04-20T15:06:48Z</time>
      </trkpt>
      <trkpt lat="43.99909" lon="5.80104">
        <ele>479.64</ele>
        <time>2015-04-20T15:06:52Z</time>
      </trkpt>
      <trkpt lat="43.99899" lon="5.801">
        <ele>479.49</ele>
        <time>2015-04-20T15:06:53Z</time>
      </trkpt>
      <trkpt lat="43.99812" lon="5.80063">
        <ele>476.27</ele>
        <time>2015-04-20T15:07:02Z</time>
      </trkpt>
      <trkpt lat="43.99751" lon="5.80048">
        <ele>473.19</ele>
        <time>2015-04-20T15:07:08Z</time>
      </trkpt>
      <trkpt lat="43.99709" lon="5.80046">
        <ele>470.42</ele>
        <time>2015-04-20T15:07:12Z</time>
      </trkpt>
      <trkpt lat="43.99685" lon="5.80086">
        <ele>466.59</ele>
        <time>2015-04-20T15:07:17Z</time>
      </trkpt>
      <trkpt lat="43.9969" lon="5.80112">
        <ele>465.95</ele>
        <time>2015-04-20T15:07:19Z</time>
      </trkpt>
      <trkpt lat="43.99714" lon="5.80228">
        <ele>462.32</ele>
        <time>2015-04-20T15:07:27Z</time>
      </trkpt>
      <trkpt lat="43.99717" lon="5.80244">
        <ele>462.05</ele>
        <time>2015-04-20T15:07:28Z</time>
      </trkpt>
      <trkpt lat="43.99726" lon="5.80305">
        <ele>458.43</ele>
        <time>2015-04-20T15:07:32Z</time>
      </trkpt>
      <trkpt lat="43.99701" lon="5.80361">
        <ele>456.36</ele>
        <time>2015-04-20T15:07:38Z</time>
      </trkpt>
      <trkpt lat="43.9966" lon="5.80369">
        <ele>453.27</ele>
        <time>2015-04-20T15:07:42Z</time>
      </trkpt>
      <trkpt lat="43.9964" lon="5.80378">
        <ele>452.49</ele>
        <time>2015-04-20T15:07:44Z</time>
      </trkpt>
      <trkpt lat="43.996" lon="5.80405">
        <ele>450.77</ele>
        <time>2015-04-20T15:07:48Z</time>
      </trkpt>
      <trkpt lat="43.9958" lon="5.80419">
        <ele>449.52</ele>
        <time>2015-04-20T15:07:50Z</time>
      </trkpt>
      <trkpt lat="43.99497" lon="5.80507">
        <ele>445.7</ele>
        <time>2015-04-20T15:07:59Z</time>
      </trkpt>
      <trkpt lat="43.99469" lon="5.80539">
        <ele>442.14</ele>
        <time>2015-04-20T15:08:02Z</time>
      </trkpt>
      <trkpt lat="43.99446" lon="5.80574">
        <ele>440.43</ele>
        <time>2015-04-20T15:08:05Z</time>
      </trkpt>
      <trkpt lat="43.99409" lon="5.80657">
        <ele>436.97</ele>
        <time>2015-04-20T15:08:11Z</time>
      </trkpt>
      <trkpt lat="43.99396" lon="5.80678">
        <ele>435.07</ele>
        <time>2015-04-20T15:08:13Z</time>
      </trkpt>
      <trkpt lat="43.99382" lon="5.80734">
        <ele>430.34</ele>
        <time>2015-04-20T15:08:18Z</time>
      </trkpt>
      <trkpt lat="43.99408" lon="5.80773">
        <ele>427.55</ele>
        <time>2015-04-20T15:08:22Z</time>
      </trkpt>
      <trkpt lat="43.99432" lon="5.80797">
        <ele>425.68</ele>
        <time>2015-04-20T15:08:25Z</time>
      </trkpt>
      <trkpt lat="43.99435" lon="5.80861">
        <ele>422.39</ele>
        <time>2015-04-20T15:08:31Z</time>
      </trkpt>
      <trkpt lat="43.99425" lon="5.80883">
        <ele>421.45</ele>
        <time>2015-04-20T15:08:33Z</time>
      </trkpt>
      <trkpt lat="43.99384" lon="5.80886">
        <ele>416.95</ele>
        <time>2015-04-20T15:08:39Z</time>
      </trkpt>
      <trkpt lat="43.99379" lon="5.80877">
        <ele>416.5</ele>
        <time>2015-04-20T15:08:40Z</time>
      </trkpt>
      <trkpt lat="43.99365" lon="5.80857">
        <ele>415.51</ele>
        <time>2015-04-20T15:08:42Z</time>
      </trkpt>
      <trkpt lat="43.9932" lon="5.8085">
        <ele>412.76</ele>
        <time>2015-04-20T15:08:47Z</time>
      </trkpt>
      <trkpt lat="43.99278" lon="5.80856">
        <ele>410.12</ele>
        <time>2015-04-20T15:08:51Z</time>
      </trkpt>
      <trkpt lat="43.99225" lon="5.80864">
        <ele>407.21</ele>
        <time>2015-04-20T15:08:56Z</time>
      </trkpt>
      <trkpt lat="43.9921" lon="5.80878">
        <ele>405.15</ele>
        <time>2015-04-20T15:08:58Z</time>
      </trkpt>
      <trkpt lat="43.99181" lon="5.80873">
        <ele>402.68</ele>
        <time>2015-04-20T15:09:02Z</time>
      </trkpt>
      <trkpt lat="43.99176" lon="5.80864">
        <ele>402.61</ele>
        <time>2015-04-20T15:09:03Z</time>
      </trkpt>
      <trkpt lat="43.99116" lon="5.8083">
        <ele>398.9</ele>
        <time>2015-04-20T15:09:10Z</time>
      </trkpt>
      <trkpt lat="43.99098" lon="5.80818">
        <ele>397.98</ele>
        <time>2015-04-20T15:09:12Z</time>
      </trkpt>
      <trkpt lat="43.99032" lon="5.80807">
        <ele>393.17</ele>
        <time>2015-04-20T15:09:19Z</time>
      </trkpt>
      <trkpt lat="43.9901" lon="5.80847">
        <ele>389.46</ele>
        <time>2015-04-20T15:09:23Z</time>
      </trkpt>
      <trkpt lat="43.98969" lon="5.80932">
        <ele>385.16</ele>
        <time>2015-04-20T15:09:30Z</time>
      </trkpt>
      <trkpt lat="43.98921" lon="5.80967">
        <ele>382.9</ele>
        <time>2015-04-20T15:09:35Z</time>
      </trkpt>
      <trkpt lat="43.98851" lon="5.80985">
        <ele>380.85</ele>
        <time>2015-04-20T15:09:42Z</time>
      </trkpt>
      <trkpt lat="43.98813" lon="5.81023">
        <ele>380.03</ele>
        <time>2015-04-20T15:09:47Z</time>
      </trkpt>
      <trkpt lat="43.98802" lon="5.81042">
        <ele>380</ele>
        <time>2015-04-20T15:09:49Z</time>
      </trkpt>
      <trkpt lat="43.98771" lon="5.81064">
        <ele>380.35</ele>
        <time>2015-04-20T15:09:53Z</time>
      </trkpt>
      <trkpt lat="43.98753" lon="5.81068">
        <ele>380.45</ele>
        <time>2015-04-20T15:09:55Z</time>
      </trkpt>
      <trkpt lat="43.98714" lon="5.81052">
        <ele>377.09</ele>
        <time>2015-04-20T15:10:00Z</time>
      </trkpt>
      <trkpt lat="43.98685" lon="5.81014">
        <ele>375.31</ele>
        <time>2015-04-20T15:10:06Z</time>
      </trkpt>
      <trkpt lat="43.9867" lon="5.81018">
        <ele>372.38</ele>
        <time>2015-04-20T15:10:14Z</time>
      </trkpt>
      <trkpt lat="43.9867" lon="5.81024">
        <ele>372.24</ele>
        <time>2015-04-20T15:10:15Z</time>
      </trkpt>
      <trkpt lat="43.98675" lon="5.81057">
        <ele>371.41</ele>
        <time>2015-04-20T15:10:20Z</time>
      </trkpt>
      <trkpt lat="43.9869" lon="5.81092">
        <ele>370.82</ele>
        <time>2015-04-20T15:10:25Z</time>
      </trkpt>
      <trkpt lat="43.98746" lon="5.8114">
        <ele>368.66</ele>
        <time>2015-04-20T15:10:34Z</time>
      </trkpt>
      <trkpt lat="43.98783" lon="5.81146">
        <ele>367.36</ele>
        <time>2015-04-20T15:10:38Z</time>
      </trkpt>
      <trkpt lat="43.98842" lon="5.81132">
        <ele>365.79</ele>
        <time>2015-04-20T15:10:44Z</time>
      </trkpt>
      <trkpt lat="43.98915" lon="5.81107">
        <ele>363.08</ele>
        <time>2015-04-20T15:10:52Z</time>
      </trkpt>
      <trkpt lat="43.98934" lon="5.81154">
        <ele>360.93</ele>
        <time>2015-04-20T15:10:56Z</time>
      </trkpt>
      <trkpt lat="43.98938" lon="5.81198">
        <ele>359.03</ele>
        <time>2015-04-20T15:10:59Z</time>
      </trkpt>
      <trkpt lat="43.98939" lon="5.81242">
        <ele>357.92</ele>
        <time>2015-04-20T15:11:02Z</time>
      </trkpt>
      <trkpt lat="43.98968" lon="5.81285">
        <ele>355.52</ele>
        <time>2015-04-20T15:11:07Z</time>
      </trkpt>
      <trkpt lat="43.98997" lon="5.81277">
        <ele>355.37</ele>
        <time>2015-04-20T15:11:10Z</time>
      </trkpt>
      <trkpt lat="43.99047" lon="5.81304">
        <ele>352.14</ele>
        <time>2015-04-20T15:11:17Z</time>
      </trkpt>
      <trkpt lat="43.99035" lon="5.81376">
        <ele>350.77</ele>
        <time>2015-04-20T15:11:23Z</time>
      </trkpt>
      <trkpt lat="43.9903" lon="5.81441">
        <ele>348.87</ele>
        <time>2015-04-20T15:11:28Z</time>
      </trkpt>
      <trkpt lat="43.99067" lon="5.81503">
        <ele>347.49</ele>
        <time>2015-04-20T15:11:34Z</time>
      </trkpt>
      <trkpt lat="43.99105" lon="5.81563">
        <ele>344.16</ele>
        <time>2015-04-20T15:11:40Z</time>
      </trkpt>
      <trkpt lat="43.99118" lon="5.81684">
        <ele>340.78</ele>
        <time>2015-04-20T15:11:48Z</time>
      </trkpt>
      <trkpt lat="43.9913" lon="5.8178">
        <ele>337.82</ele>
        <time>2015-04-20T15:11:54Z</time>
      </trkpt>
      <trkpt lat="43.99154" lon="5.81889">
        <ele>334.61</ele>
        <time>2015-04-20T15:12:01Z</time>
      </trkpt>
      <trkpt lat="43.99185" lon="5.81992">
        <ele>331.5</ele>
        <time>2015-04-20T15:12:08Z</time>
      </trkpt>
      <trkpt lat="43.99231" lon="5.82029">
        <ele>328.29</ele>
        <time>2015-04-20T15:12:13Z</time>
      </trkpt>
      <trkpt lat="43.99308" lon="5.82046">
        <ele>326.39</ele>
        <time>2015-04-20T15:12:20Z</time>
      </trkpt>
      <trkpt lat="43.9937" lon="5.82078">
        <ele>323.78</ele>
        <time>2015-04-20T15:12:26Z</time>
      </trkpt>
      <trkpt lat="43.99418" lon="5.82135">
        <ele>319.36</ele>
        <time>2015-04-20T15:12:32Z</time>
      </trkpt>
      <trkpt lat="43.99436" lon="5.82186">
        <ele>317.54</ele>
        <time>2015-04-20T15:12:36Z</time>
      </trkpt>
      <trkpt lat="43.99495" lon="5.82278">
        <ele>313.65</ele>
        <time>2015-04-20T15:12:44Z</time>
      </trkpt>
      <trkpt lat="43.99505" lon="5.82288">
        <ele>313.38</ele>
        <time>2015-04-20T15:12:45Z</time>
      </trkpt>
      <trkpt lat="43.9957" lon="5.82352">
        <ele>311.83</ele>
        <time>2015-04-20T15:12:52Z</time>
      </trkpt>
      <trkpt lat="43.99637" lon="5.82478">
        <ele>308.76</ele>
        <time>2015-04-20T15:13:02Z</time>
      </trkpt>
      <trkpt lat="43.99674" lon="5.82561">
        <ele>306.56</ele>
        <time>2015-04-20T15:13:08Z</time>
      </trkpt>
      <trkpt lat="43.99706" lon="5.8273">
        <ele>302.84</ele>
        <time>2015-04-20T15:13:19Z</time>
      </trkpt>
      <trkpt lat="43.99706" lon="5.8276">
        <ele>302.11</ele>
        <time>2015-04-20T15:13:21Z</time>
      </trkpt>
      <trkpt lat="43.99704" lon="5.82926">
        <ele>302.14</ele>
        <time>2015-04-20T15:13:33Z</time>
      </trkpt>
      <trkpt lat="43.9972" lon="5.83075">
        <ele>301.97</ele>
        <time>2015-04-20T15:13:46Z</time>
      </trkpt>
      <trkpt lat="43.99757" lon="5.83245">
        <ele>301.19</ele>
        <time>2015-04-20T15:14:01Z</time>
      </trkpt>
      <trkpt lat="43.99789" lon="5.83425">
        <ele>303.01</ele>
        <time>2015-04-20T15:14:18Z</time>
      </trkpt>
      <trkpt lat="43.99788" lon="5.83561">
        <ele>304.52</ele>
        <time>2015-04-20T15:14:31Z</time>
      </trkpt>
      <trkpt lat="43.99814" lon="5.8368">
        <ele>304.78</ele>
        <time>2015-04-20T15:14:44Z</time>
      </trkpt>
      <trkpt lat="43.99851" lon="5.83816">
        <ele>302.84</ele>
        <time>2015-04-20T15:14:57Z</time>
      </trkpt>
      <trkpt lat="43.99839" lon="5.83916">
        <ele>301.01</ele>
        <time>2015-04-20T15:15:07Z</time>
      </trkpt>
      <trkpt lat="43.99834" lon="5.83924">
        <ele>301.14</ele>
        <time>2015-04-20T15:15:08Z</time>
      </trkpt>
      <trkpt lat="43.99778" lon="5.83997">
        <ele>303.01</ele>
        <time>2015-04-20T15:15:20Z</time>
      </trkpt>
      <trkpt lat="43.99747" lon="5.84035">
        <ele>304.08</ele>
        <time>2015-04-20T15:15:29Z</time>
      </trkpt>
      <trkpt lat="43.99715" lon="5.84074">
        <ele>305.11</ele>
        <time>2015-04-20T15:15:39Z</time>
      </trkpt>
      <trkpt lat="43.99728" lon="5.84105">
        <ele>303.51</ele>
        <time>2015-04-20T15:15:45Z</time>
      </trkpt>
      <trkpt lat="43.99774" lon="5.84131">
        <ele>301.57</ele>
        <time>2015-04-20T15:15:52Z</time>
      </trkpt>
      <trkpt lat="43.99787" lon="5.84198">
        <ele>299.08</ele>
        <time>2015-04-20T15:15:59Z</time>
      </trkpt>
      <trkpt lat="43.99761" lon="5.84232">
        <ele>298.38</ele>
        <time>2015-04-20T15:16:03Z</time>
      </trkpt>
      <trkpt lat="43.99692" lon="5.84276">
        <ele>295.55</ele>
        <time>2015-04-20T15:16:12Z</time>
      </trkpt>
      <trkpt lat="43.99653" lon="5.84278">
        <ele>294</ele>
        <time>2015-04-20T15:16:17Z</time>
      </trkpt>
      <trkpt lat="43.99629" lon="5.84268">
        <ele>294.14</ele>
        <time>2015-04-20T15:16:20Z</time>
      </trkpt>
      <trkpt lat="43.99542" lon="5.84264">
        <ele>290.46</ele>
        <time>2015-04-20T15:16:30Z</time>
      </trkpt>
      <trkpt lat="43.99534" lon="5.84265">
        <ele>290.3</ele>
        <time>2015-04-20T15:16:31Z</time>
      </trkpt>
      <trkpt lat="43.995" lon="5.84279">
        <ele>288.63</ele>
        <time>2015-04-20T15:16:35Z</time>
      </trkpt>
      <trkpt lat="43.99461" lon="5.8433">
        <ele>285.85</ele>
        <time>2015-04-20T15:16:41Z</time>
      </trkpt>
      <trkpt lat="43.99442" lon="5.84389">
        <ele>284.48</ele>
        <time>2015-04-20T15:16:46Z</time>
      </trkpt>
      <trkpt lat="43.99422" lon="5.84573">
        <ele>281.34</ele>
        <time>2015-04-20T15:17:00Z</time>
      </trkpt>
      <trkpt lat="43.99399" lon="5.84681">
        <ele>280.63</ele>
        <time>2015-04-20T15:17:09Z</time>
      </trkpt>
      <trkpt lat="43.99378" lon="5.84722">
        <ele>280.62</ele>
        <time>2015-04-20T15:17:13Z</time>
      </trkpt>
      <trkpt lat="43.99297" lon="5.84825">
        <ele>277.58</ele>
        <time>2015-04-20T15:17:24Z</time>
      </trkpt>
      <trkpt lat="43.99266" lon="5.84864">
        <ele>275.9</ele>
        <time>2015-04-20T15:17:28Z</time>
      </trkpt>
      <trkpt lat="43.99244" lon="5.84917">
        <ele>273.85</ele>
        <time>2015-04-20T15:17:32Z</time>
      </trkpt>
      <trkpt lat="43.99227" lon="5.84986">
        <ele>272.87</ele>
        <time>2015-04-20T15:17:37Z</time>
      </trkpt>
      <trkpt lat="43.99205" lon="5.8503">
        <ele>271.17</ele>
        <time>2015-04-20T15:17:41Z</time>
      </trkpt>
      <trkpt lat="43.9919" lon="5.85047">
        <ele>270.66</ele>
        <time>2015-04-20T15:17:43Z</time>
      </trkpt>
      <trkpt lat="43.99081" lon="5.85192">
        <ele>267.08</ele>
        <time>2015-04-20T15:17:58Z</time>
      </trkpt>
      <trkpt lat="43.99044" lon="5.85241">
        <ele>263.55</ele>
        <time>2015-04-20T15:18:03Z</time>
      </trkpt>
      <trkpt lat="43.99007" lon="5.85289">
        <ele>261.36</ele>
        <time>2015-04-20T15:18:08Z</time>
      </trkpt>
      <trkpt lat="43.98895" lon="5.85382">
        <ele>258.5</ele>
        <time>2015-04-20T15:18:21Z</time>
      </trkpt>
      <trkpt lat="43.98849" lon="5.85469">
        <ele>257.28</ele>
        <time>2015-04-20T15:18:30Z</time>
      </trkpt>
      <trkpt lat="43.98766" lon="5.85588">
        <ele>255.36</ele>
        <time>2015-04-20T15:18:44Z</time>
      </trkpt>
      <trkpt lat="43.98687" lon="5.85712">
        <ele>252.2</ele>
        <time>2015-04-20T15:18:57Z</time>
      </trkpt>
      <trkpt lat="43.98625" lon="5.85804">
        <ele>250.68</ele>
        <time>2015-04-20T15:19:09Z</time>
      </trkpt>
      <trkpt lat="43.98551" lon="5.85901">
        <ele>250.81</ele>
        <time>2015-04-20T15:19:23Z</time>
      </trkpt>
      <trkpt lat="43.98456" lon="5.85988">
        <ele>247.32</ele>
        <time>2015-04-20T15:19:37Z</time>
      </trkpt>
      <trkpt lat="43.98385" lon="5.8605">
        <ele>243.92</ele>
        <time>2015-04-20T15:19:46Z</time>
      </trkpt>
      <trkpt lat="43.98359" lon="5.8609">
        <ele>241.93</ele>
        <time>2015-04-20T15:19:50Z</time>
      </trkpt>
      <trkpt lat="43.98322" lon="5.86192">
        <ele>238.66</ele>
        <time>2015-04-20T15:19:58Z</time>
      </trkpt>
      <trkpt lat="43.983" lon="5.86285">
        <ele>238.96</ele>
        <time>2015-04-20T15:20:06Z</time>
      </trkpt>
      <trkpt lat="43.98279" lon="5.86316">
        <ele>239.03</ele>
        <time>2015-04-20T15:20:10Z</time>
      </trkpt>
      <trkpt lat="43.98259" lon="5.86331">
        <ele>241</ele>
        <time>2015-04-20T15:20:13Z</time>
      </trkpt>
      <trkpt lat="43.98166" lon="5.86381">
        <ele>241.94</ele>
        <time>2015-04-20T15:20:26Z</time>
      </trkpt>
      <trkpt lat="43.98116" lon="5.86416">
        <ele>239.36</ele>
        <time>2015-04-20T15:20:33Z</time>
      </trkpt>
      <trkpt lat="43.98024" lon="5.86483">
        <ele>239.06</ele>
        <time>2015-04-20T15:20:45Z</time>
      </trkpt>
      <trkpt lat="43.9801" lon="5.86493">
        <ele>239.78</ele>
        <time>2015-04-20T15:20:47Z</time>
      </trkpt>
      <trkpt lat="43.97977" lon="5.86515">
        <ele>238.93</ele>
        <time>2015-04-20T15:20:52Z</time>
      </trkpt>
      <trkpt lat="43.97949" lon="5.86526">
        <ele>236.88</ele>
        <time>2015-04-20T15:20:56Z</time>
      </trkpt>
      <trkpt lat="43.97896" lon="5.86531">
        <ele>237.46</ele>
        <time>2015-04-20T15:21:04Z</time>
      </trkpt>
      <trkpt lat="43.97819" lon="5.86576">
        <ele>237.12</ele>
        <time>2015-04-20T15:21:16Z</time>
      </trkpt>
      <trkpt lat="43.97776" lon="5.86603">
        <ele>235</ele>
        <time>2015-04-20T15:21:22Z</time>
      </trkpt>
      <trkpt lat="43.97712" lon="5.8664">
        <ele>234.57</ele>
        <time>2015-04-20T15:21:31Z</time>
      </trkpt>
      <trkpt lat="43.97697" lon="5.86647">
        <ele>233.94</ele>
        <time>2015-04-20T15:21:33Z</time>
      </trkpt>
      <trkpt lat="43.9766" lon="5.86649">
        <ele>233.41</ele>
        <time>2015-04-20T15:21:38Z</time>
      </trkpt>
      <trkpt lat="43.97551" lon="5.86619">
        <ele>232.89</ele>
        <time>2015-04-20T15:21:54Z</time>
      </trkpt>
      <trkpt lat="43.97468" lon="5.86574">
        <ele>232.5</ele>
        <time>2015-04-20T15:22:07Z</time>
      </trkpt>
      <trkpt lat="43.97455" lon="5.86566">
        <ele>232.89</ele>
        <time>2015-04-20T15:22:09Z</time>
      </trkpt>
      <trkpt lat="43.97412" lon="5.86574">
        <ele>234.09</ele>
        <time>2015-04-20T15:22:15Z</time>
      </trkpt>
      <trkpt lat="43.97341" lon="5.86665">
        <ele>232.8</ele>
        <time>2015-04-20T15:22:29Z</time>
      </trkpt>
      <trkpt lat="43.97317" lon="5.86676">
        <ele>232.6</ele>
        <time>2015-04-20T15:22:33Z</time>
      </trkpt>
      <trkpt lat="43.97308" lon="5.86676">
        <ele>232.37</ele>
        <time>2015-04-20T15:22:35Z</time>
      </trkpt>
      <trkpt lat="43.97307" lon="5.86683">
        <ele>231.05</ele>
        <time>2015-04-20T15:22:39Z</time>
      </trkpt>
      <trkpt lat="43.97332" lon="5.8673">
        <ele>233.72</ele>
        <time>2015-04-20T15:22:53Z</time>
      </trkpt>
      <trkpt lat="43.9733" lon="5.86775">
        <ele>236.86</ele>
        <time>2015-04-20T15:23:04Z</time>
      </trkpt>
      <trkpt lat="43.97315" lon="5.86805">
        <ele>238.83</ele>
        <time>2015-04-20T15:23:11Z</time>
      </trkpt>
      <trkpt lat="43.97283" lon="5.86871">
        <ele>241.96</ele>
        <time>2015-04-20T15:23:25Z</time>
      </trkpt>
      <trkpt lat="43.97254" lon="5.86932">
        <ele>244.97</ele>
        <time>2015-04-20T15:23:39Z</time>
      </trkpt>
      <trkpt lat="43.97239" lon="5.86984">
        <ele>247.63</ele>
        <time>2015-04-20T15:23:52Z</time>
      </trkpt>
      <trkpt lat="43.97265" lon="5.8701">
        <ele>250.67</ele>
        <time>2015-04-20T15:24:02Z</time>
      </trkpt>
      <trkpt lat="43.9729" lon="5.87039">
        <ele>253.96</ele>
        <time>2015-04-20T15:24:13Z</time>
      </trkpt>
      <trkpt lat="43.97327" lon="5.8709">
        <ele>257.18</ele>
        <time>2015-04-20T15:24:26Z</time>
      </trkpt>
      <trkpt lat="43.9737" lon="5.8716">
        <ele>259.73</ele>
        <time>2015-04-20T15:24:41Z</time>
      </trkpt>
      <trkpt lat="43.97399" lon="5.87189">
        <ele>260.77</ele>
        <time>2015-04-20T15:24:49Z</time>
      </trkpt>
      <trkpt lat="43.97417" lon="5.87202">
        <ele>262.18</ele>
        <time>2015-04-20T15:24:54Z</time>
      </trkpt>
      <trkpt lat="43.9743" lon="5.87224">
        <ele>263.76</ele>
        <time>2015-04-20T15:24:59Z</time>
      </trkpt>
      <trkpt lat="43.97455" lon="5.87316">
        <ele>264.97</ele>
        <time>2015-04-20T15:25:12Z</time>
      </trkpt>
      <trkpt lat="43.97502" lon="5.87416">
        <ele>265.93</ele>
        <time>2015-04-20T15:25:26Z</time>
      </trkpt>
      <trkpt lat="43.97546" lon="5.87511">
        <ele>267.63</ele>
        <time>2015-04-20T15:25:40Z</time>
      </trkpt>
      <trkpt lat="43.97565" lon="5.87557">
        <ele>270.03</ele>
        <time>2015-04-20T15:25:48Z</time>
      </trkpt>
      <trkpt lat="43.97572" lon="5.87574">
        <ele>270.7</ele>
        <time>2015-04-20T15:25:51Z</time>
      </trkpt>
      <trkpt lat="43.97587" lon="5.87607">
        <ele>271.07</ele>
        <time>2015-04-20T15:25:56Z</time>
      </trkpt>
      <trkpt lat="43.97646" lon="5.87695">
        <ele>272.87</ele>
        <time>2015-04-20T15:26:10Z</time>
      </trkpt>
      <trkpt lat="43.97699" lon="5.87768">
        <ele>275.89</ele>
        <time>2015-04-20T15:26:24Z</time>
      </trkpt>
      <trkpt lat="43.97704" lon="5.87816">
        <ele>278.58</ele>
        <time>2015-04-20T15:26:34Z</time>
      </trkpt>
      <trkpt lat="43.97684" lon="5.87905">
        <ele>277.7</ele>
        <time>2015-04-20T15:26:47Z</time>
      </trkpt>
      <trkpt lat="43.9766" lon="5.88029">
        <ele>278.13</ele>
        <time>2015-04-20T15:27:02Z</time>
      </trkpt>
      <trkpt lat="43.9765" lon="5.88057">
        <ele>277.19</ele>
        <time>2015-04-20T15:27:05Z</time>
      </trkpt>
      <trkpt lat="43.97637" lon="5.88082">
        <ele>276.11</ele>
        <time>2015-04-20T15:27:08Z</time>
      </trkpt>
      <trkpt lat="43.97564" lon="5.88191">
        <ele>274.75</ele>
        <time>2015-04-20T15:27:23Z</time>
      </trkpt>
      <trkpt lat="43.97548" lon="5.88219">
        <ele>274.82</ele>
        <time>2015-04-20T15:27:27Z</time>
      </trkpt>
      <trkpt lat="43.97476" lon="5.88304">
        <ele>275.38</ele>
        <time>2015-04-20T15:27:43Z</time>
      </trkpt>
      <trkpt lat="43.97419" lon="5.88361">
        <ele>278.36</ele>
        <time>2015-04-20T15:27:58Z</time>
      </trkpt>
      <trkpt lat="43.97384" lon="5.88399">
        <ele>281.38</ele>
        <time>2015-04-20T15:28:11Z</time>
      </trkpt>
      <trkpt lat="43.97361" lon="5.88437">
        <ele>284.05</ele>
        <time>2015-04-20T15:28:23Z</time>
      </trkpt>
      <trkpt lat="43.97335" lon="5.8848">
        <ele>287.3</ele>
        <time>2015-04-20T15:28:38Z</time>
      </trkpt>
      <trkpt lat="43.97313" lon="5.8852">
        <ele>290.32</ele>
        <time>2015-04-20T15:28:52Z</time>
      </trkpt>
      <trkpt lat="43.97295" lon="5.88552">
        <ele>292.68</ele>
        <time>2015-04-20T15:29:05Z</time>
      </trkpt>
      <trkpt lat="43.97275" lon="5.88583">
        <ele>295.81</ele>
        <time>2015-04-20T15:29:18Z</time>
      </trkpt>
      <trkpt lat="43.9726" lon="5.88606">
        <ele>298.95</ele>
        <time>2015-04-20T15:29:29Z</time>
      </trkpt>
      <trkpt lat="43.97246" lon="5.88623">
        <ele>302.31</ele>
        <time>2015-04-20T15:29:37Z</time>
      </trkpt>
      <trkpt lat="43.9723" lon="5.88642">
        <ele>305.67</ele>
        <time>2015-04-20T15:29:45Z</time>
      </trkpt>
      <trkpt lat="43.97201" lon="5.88656">
        <ele>308.72</ele>
        <time>2015-04-20T15:29:56Z</time>
      </trkpt>
      <trkpt lat="43.97164" lon="5.88652">
        <ele>308.86</ele>
        <time>2015-04-20T15:30:08Z</time>
      </trkpt>
      <trkpt lat="43.97125" lon="5.8864">
        <ele>308.98</ele>
        <time>2015-04-20T15:30:21Z</time>
      </trkpt>
      <trkpt lat="43.97089" lon="5.88626">
        <ele>309.16</ele>
        <time>2015-04-20T15:30:33Z</time>
      </trkpt>
      <trkpt lat="43.97049" lon="5.88609">
        <ele>309.97</ele>
        <time>2015-04-20T15:30:46Z</time>
      </trkpt>
      <trkpt lat="43.9702" lon="5.88601">
        <ele>311.31</ele>
        <time>2015-04-20T15:30:57Z</time>
      </trkpt>
      <trkpt lat="43.96985" lon="5.88596">
        <ele>312.86</ele>
        <time>2015-04-20T15:31:11Z</time>
      </trkpt>
      <trkpt lat="43.96983" lon="5.88608">
        <ele>313.74</ele>
        <time>2015-04-20T15:31:16Z</time>
      </trkpt>
      <trkpt lat="43.96998" lon="5.88624">
        <ele>316.11</ele>
        <time>2015-04-20T15:31:27Z</time>
      </trkpt>
      <trkpt lat="43.96999" lon="5.88641">
        <ele>317.95</ele>
        <time>2015-04-20T15:31:36Z</time>
      </trkpt>
      <trkpt lat="43.96997" lon="5.88641">
        <ele>318.34</ele>
        <time>2015-04-20T15:31:37Z</time>
      </trkpt>
      <trkpt lat="43.96965" lon="5.88651">
        <ele>321.43</ele>
        <time>2015-04-20T15:31:53Z</time>
      </trkpt>
      <trkpt lat="43.9694" lon="5.88661">
        <ele>323.36</ele>
        <time>2015-04-20T15:32:05Z</time>
      </trkpt>
      <trkpt lat="43.96915" lon="5.88678">
        <ele>324.82</ele>
        <time>2015-04-20T15:32:18Z</time>
      </trkpt>
      <trkpt lat="43.9692" lon="5.88705">
        <ele>326.44</ele>
        <time>2015-04-20T15:32:30Z</time>
      </trkpt>
      <trkpt lat="43.96928" lon="5.88728">
        <ele>328.55</ele>
        <time>2015-04-20T15:32:40Z</time>
      </trkpt>
      <trkpt lat="43.96938" lon="5.88761">
        <ele>331.94</ele>
        <time>2015-04-20T15:32:52Z</time>
      </trkpt>
      <trkpt lat="43.96961" lon="5.88774">
        <ele>335.08</ele>
        <time>2015-04-20T15:33:03Z</time>
      </trkpt>
      <trkpt lat="43.97" lon="5.88779">
        <ele>338.17</ele>
        <time>2015-04-20T15:33:17Z</time>
      </trkpt>
      <trkpt lat="43.97034" lon="5.88785">
        <ele>340.92</ele>
        <time>2015-04-20T15:33:29Z</time>
      </trkpt>
      <trkpt lat="43.97069" lon="5.8879">
        <ele>343.25</ele>
        <time>2015-04-20T15:33:40Z</time>
      </trkpt>
      <trkpt lat="43.97093" lon="5.88802">
        <ele>345.97</ele>
        <time>2015-04-20T15:33:53Z</time>
      </trkpt>
      <trkpt lat="43.97095" lon="5.88804">
        <ele>346.64</ele>
        <time>2015-04-20T15:33:55Z</time>
      </trkpt>
      <trkpt lat="43.97086" lon="5.88816">
        <ele>349.74</ele>
        <time>2015-04-20T15:34:03Z</time>
      </trkpt>
      <trkpt lat="43.9706" lon="5.88812">
        <ele>353.38</ele>
        <time>2015-04-20T15:34:15Z</time>
      </trkpt>
      <trkpt lat="43.97025" lon="5.88815">
        <ele>355.61</ele>
        <time>2015-04-20T15:34:26Z</time>
      </trkpt>
      <trkpt lat="43.96977" lon="5.88832">
        <ele>357.34</ele>
        <time>2015-04-20T15:34:42Z</time>
      </trkpt>
      <trkpt lat="43.96957" lon="5.88853">
        <ele>360.56</ele>
        <time>2015-04-20T15:34:52Z</time>
      </trkpt>
      <trkpt lat="43.96937" lon="5.88873">
        <ele>363.75</ele>
        <time>2015-04-20T15:35:03Z</time>
      </trkpt>
      <trkpt lat="43.9693" lon="5.8888">
        <ele>365.53</ele>
        <time>2015-04-20T15:35:07Z</time>
      </trkpt>
      <trkpt lat="43.96918" lon="5.889">
        <ele>368.19</ele>
        <time>2015-04-20T15:35:19Z</time>
      </trkpt>
      <trkpt lat="43.96916" lon="5.88903">
        <ele>368.64</ele>
        <time>2015-04-20T15:35:23Z</time>
      </trkpt>
      <trkpt lat="43.96916" lon="5.88901">
        <ele>368.27</ele>
        <time>2015-04-20T15:35:26Z</time>
      </trkpt>
      <trkpt lat="43.96903" lon="5.88916">
        <ele>369.96</ele>
        <time>2015-04-20T15:35:37Z</time>
      </trkpt>
      <trkpt lat="43.96893" lon="5.88931">
        <ele>373.27</ele>
        <time>2015-04-20T15:35:46Z</time>
      </trkpt>
      <trkpt lat="43.9688" lon="5.88948">
        <ele>376.38</ele>
        <time>2015-04-20T15:35:55Z</time>
      </trkpt>
      <trkpt lat="43.96863" lon="5.88968">
        <ele>377.93</ele>
        <time>2015-04-20T15:36:07Z</time>
      </trkpt>
      <trkpt lat="43.96863" lon="5.88977">
        <ele>378.11</ele>
        <time>2015-04-20T15:36:20Z</time>
      </trkpt>
      <trkpt lat="43.96867" lon="5.88982">
        <ele>378.2</ele>
        <time>2015-04-20T15:36:26Z</time>
      </trkpt>
      <trkpt lat="43.96888" lon="5.89001">
        <ele>378.15</ele>
        <time>2015-04-20T15:36:35Z</time>
      </trkpt>
      <trkpt lat="43.96915" lon="5.8902">
        <ele>375.58</ele>
        <time>2015-04-20T15:36:43Z</time>
      </trkpt>
      <trkpt lat="43.96925" lon="5.89027">
        <ele>377.74</ele>
        <time>2015-04-20T15:36:53Z</time>
      </trkpt>
      <trkpt lat="43.96923" lon="5.89032">
        <ele>378.03</ele>
        <time>2015-04-20T15:37:21Z</time>
      </trkpt>
      <trkpt lat="43.96923" lon="5.89032">
        <ele>378.02</ele>
        <time>2015-04-20T15:37:50Z</time>
      </trkpt>
      <trkpt lat="43.96922" lon="5.89031">
        <ele>377.49</ele>
        <time>2015-04-20T15:38:22Z</time>
      </trkpt>
      <trkpt lat="43.96922" lon="5.89032">
        <ele>377.55</ele>
        <time>2015-04-20T15:38:55Z</time>
      </trkpt>
      <trkpt lat="43.96932" lon="5.89038">
        <ele>377.41</ele>
        <time>2015-04-20T15:39:26Z</time>
      </trkpt>
      <trkpt lat="43.96922" lon="5.89035">
        <ele>377.3</ele>
        <time>2015-04-20T15:39:57Z</time>
      </trkpt>
      <trkpt lat="43.96919" lon="5.89032">
        <ele>377.22</ele>
        <time>2015-04-20T15:40:29Z</time>
      </trkpt>
      <trkpt lat="43.96919" lon="5.89031">
        <ele>377.11</ele>
        <time>2015-04-20T15:40:52Z</time>
      </trkpt>
      <trkpt lat="43.96917" lon="5.89028">
        <ele>377.17</ele>
        <time>2015-04-20T15:41:04Z</time>
      </trkpt>
      <trkpt lat="43.96889" lon="5.89011">
        <ele>375.75</ele>
        <time>2015-04-20T15:41:12Z</time>
      </trkpt>
      <trkpt lat="43.9687" lon="5.88991">
        <ele>377.08</ele>
        <time>2015-04-20T15:41:23Z</time>
      </trkpt>
      <trkpt lat="43.96841" lon="5.88973">
        <ele>377.17</ele>
        <time>2015-04-20T15:41:33Z</time>
      </trkpt>
      <trkpt lat="43.96813" lon="5.88942">
        <ele>378.16</ele>
        <time>2015-04-20T15:41:46Z</time>
      </trkpt>
      <trkpt lat="43.96795" lon="5.8891">
        <ele>377.7</ele>
        <time>2015-04-20T15:41:57Z</time>
      </trkpt>
      <trkpt lat="43.96788" lon="5.88902">
        <ele>377.23</ele>
        <time>2015-04-20T15:42:02Z</time>
      </trkpt>
      <trkpt lat="43.96782" lon="5.88896">
        <ele>376.41</ele>
        <time>2015-04-20T15:42:14Z</time>
      </trkpt>
      <trkpt lat="43.9678" lon="5.88884">
        <ele>376.28</ele>
        <time>2015-04-20T15:42:32Z</time>
      </trkpt>
      <trkpt lat="43.96778" lon="5.88885">
        <ele>376.14</ele>
        <time>2015-04-20T15:43:04Z</time>
      </trkpt>
      <trkpt lat="43.96772" lon="5.88887">
        <ele>376.32</ele>
        <time>2015-04-20T15:43:17Z</time>
      </trkpt>
      <trkpt lat="43.96769" lon="5.88887">
        <ele>376.2</ele>
        <time>2015-04-20T15:43:19Z</time>
      </trkpt>
      <trkpt lat="43.96761" lon="5.88883">
        <ele>375.87</ele>
        <time>2015-04-20T15:43:23Z</time>
      </trkpt>
      <trkpt lat="43.96746" lon="5.88871">
        <ele>375.35</ele>
        <time>2015-04-20T15:43:26Z</time>
      </trkpt>
      <trkpt lat="43.96706" lon="5.88825">
        <ele>371.53</ele>
        <time>2015-04-20T15:43:32Z</time>
      </trkpt>
      <trkpt lat="43.96689" lon="5.88806">
        <ele>370.65</ele>
        <time>2015-04-20T15:43:34Z</time>
      </trkpt>
      <trkpt lat="43.96674" lon="5.88788">
        <ele>370.17</ele>
        <time>2015-04-20T15:43:36Z</time>
      </trkpt>
      <trkpt lat="43.96635" lon="5.88724">
        <ele>370.65</ele>
        <time>2015-04-20T15:43:45Z</time>
      </trkpt>
      <trkpt lat="43.96617" lon="5.88697">
        <ele>373.7</ele>
        <time>2015-04-20T15:43:53Z</time>
      </trkpt>
      <trkpt lat="43.96597" lon="5.88659">
        <ele>375.08</ele>
        <time>2015-04-20T15:44:04Z</time>
      </trkpt>
      <trkpt lat="43.96574" lon="5.8858">
        <ele>372.79</ele>
        <time>2015-04-20T15:44:15Z</time>
      </trkpt>
      <trkpt lat="43.96556" lon="5.88499">
        <ele>369.36</ele>
        <time>2015-04-20T15:44:22Z</time>
      </trkpt>
      <trkpt lat="43.96542" lon="5.8841">
        <ele>366.05</ele>
        <time>2015-04-20T15:44:28Z</time>
      </trkpt>
      <trkpt lat="43.96525" lon="5.88325">
        <ele>362.34</ele>
        <time>2015-04-20T15:44:34Z</time>
      </trkpt>
      <trkpt lat="43.96521" lon="5.88273">
        <ele>359.18</ele>
        <time>2015-04-20T15:44:37Z</time>
      </trkpt>
      <trkpt lat="43.9652" lon="5.88217">
        <ele>355.84</ele>
        <time>2015-04-20T15:44:40Z</time>
      </trkpt>
      <trkpt lat="43.96518" lon="5.88166">
        <ele>352.1</ele>
        <time>2015-04-20T15:44:43Z</time>
      </trkpt>
      <trkpt lat="43.96511" lon="5.88091">
        <ele>349.03</ele>
        <time>2015-04-20T15:44:48Z</time>
      </trkpt>
      <trkpt lat="43.96509" lon="5.88077">
        <ele>348.77</ele>
        <time>2015-04-20T15:44:49Z</time>
      </trkpt>
      <trkpt lat="43.96508" lon="5.88044">
        <ele>345.15</ele>
        <time>2015-04-20T15:44:51Z</time>
      </trkpt>
      <trkpt lat="43.96505" lon="5.87989">
        <ele>342.09</ele>
        <time>2015-04-20T15:44:54Z</time>
      </trkpt>
      <trkpt lat="43.96504" lon="5.87934">
        <ele>338.98</ele>
        <time>2015-04-20T15:44:57Z</time>
      </trkpt>
      <trkpt lat="43.96507" lon="5.87865">
        <ele>337.28</ele>
        <time>2015-04-20T15:45:01Z</time>
      </trkpt>
      <trkpt lat="43.96512" lon="5.87792">
        <ele>333.66</ele>
        <time>2015-04-20T15:45:06Z</time>
      </trkpt>
      <trkpt lat="43.9652" lon="5.87704">
        <ele>330.19</ele>
        <time>2015-04-20T15:45:12Z</time>
      </trkpt>
      <trkpt lat="43.96529" lon="5.87637">
        <ele>327.18</ele>
        <time>2015-04-20T15:45:16Z</time>
      </trkpt>
      <trkpt lat="43.96541" lon="5.87554">
        <ele>323.98</ele>
        <time>2015-04-20T15:45:21Z</time>
      </trkpt>
      <trkpt lat="43.96551" lon="5.87476">
        <ele>320.08</ele>
        <time>2015-04-20T15:45:26Z</time>
      </trkpt>
      <trkpt lat="43.96558" lon="5.87416">
        <ele>315.92</ele>
        <time>2015-04-20T15:45:30Z</time>
      </trkpt>
      <trkpt lat="43.96565" lon="5.87348">
        <ele>311.83</ele>
        <time>2015-04-20T15:45:34Z</time>
      </trkpt>
      <trkpt lat="43.96569" lon="5.87295">
        <ele>307.66</ele>
        <time>2015-04-20T15:45:37Z</time>
      </trkpt>
      <trkpt lat="43.96571" lon="5.87264">
        <ele>304.29</ele>
        <time>2015-04-20T15:45:39Z</time>
      </trkpt>
      <trkpt lat="43.96574" lon="5.87233">
        <ele>300.99</ele>
        <time>2015-04-20T15:45:41Z</time>
      </trkpt>
      <trkpt lat="43.96577" lon="5.87202">
        <ele>297.36</ele>
        <time>2015-04-20T15:45:43Z</time>
      </trkpt>
      <trkpt lat="43.96579" lon="5.87156">
        <ele>294.1</ele>
        <time>2015-04-20T15:45:46Z</time>
      </trkpt>
      <trkpt lat="43.96579" lon="5.87141">
        <ele>293.81</ele>
        <time>2015-04-20T15:45:47Z</time>
      </trkpt>
      <trkpt lat="43.96578" lon="5.87098">
        <ele>290.61</ele>
        <time>2015-04-20T15:45:50Z</time>
      </trkpt>
      <trkpt lat="43.96573" lon="5.87058">
        <ele>286.59</ele>
        <time>2015-04-20T15:45:53Z</time>
      </trkpt>
      <trkpt lat="43.96568" lon="5.87031">
        <ele>283.39</ele>
        <time>2015-04-20T15:45:55Z</time>
      </trkpt>
      <trkpt lat="43.96553" lon="5.86978">
        <ele>279.16</ele>
        <time>2015-04-20T15:45:59Z</time>
      </trkpt>
      <trkpt lat="43.96544" lon="5.8695">
        <ele>277.14</ele>
        <time>2015-04-20T15:46:01Z</time>
      </trkpt>
      <trkpt lat="43.96507" lon="5.86901">
        <ele>273.23</ele>
        <time>2015-04-20T15:46:06Z</time>
      </trkpt>
      <trkpt lat="43.96476" lon="5.86897">
        <ele>268.37</ele>
        <time>2015-04-20T15:46:09Z</time>
      </trkpt>
      <trkpt lat="43.96457" lon="5.86906">
        <ele>265.09</ele>
        <time>2015-04-20T15:46:11Z</time>
      </trkpt>
      <trkpt lat="43.96431" lon="5.8693">
        <ele>261.84</ele>
        <time>2015-04-20T15:46:14Z</time>
      </trkpt>
      <trkpt lat="43.96396" lon="5.86971">
        <ele>257.6</ele>
        <time>2015-04-20T15:46:18Z</time>
      </trkpt>
      <trkpt lat="43.96369" lon="5.87005">
        <ele>254.76</ele>
        <time>2015-04-20T15:46:21Z</time>
      </trkpt>
      <trkpt lat="43.96346" lon="5.87062">
        <ele>250.09</ele>
        <time>2015-04-20T15:46:25Z</time>
      </trkpt>
      <trkpt lat="43.96313" lon="5.87094">
        <ele>247.01</ele>
        <time>2015-04-20T15:46:29Z</time>
      </trkpt>
      <trkpt lat="43.96303" lon="5.87095">
        <ele>246.76</ele>
        <time>2015-04-20T15:46:30Z</time>
      </trkpt>
      <trkpt lat="43.96294" lon="5.87094">
        <ele>246.69</ele>
        <time>2015-04-20T15:46:31Z</time>
      </trkpt>
      <trkpt lat="43.96221" lon="5.87092">
        <ele>248.08</ele>
        <time>2015-04-20T15:46:42Z</time>
      </trkpt>
      <trkpt lat="43.96213" lon="5.87093">
        <ele>248.76</ele>
        <time>2015-04-20T15:46:44Z</time>
      </trkpt>
      <trkpt lat="43.96166" lon="5.87117">
        <ele>245.59</ele>
        <time>2015-04-20T15:46:53Z</time>
      </trkpt>
      <trkpt lat="43.9615" lon="5.87125">
        <ele>244.49</ele>
        <time>2015-04-20T15:46:55Z</time>
      </trkpt>
      <trkpt lat="43.96082" lon="5.87144">
        <ele>240.37</ele>
        <time>2015-04-20T15:47:03Z</time>
      </trkpt>
      <trkpt lat="43.96039" lon="5.87156">
        <ele>237.17</ele>
        <time>2015-04-20T15:47:08Z</time>
      </trkpt>
      <trkpt lat="43.95961" lon="5.87194">
        <ele>234.03</ele>
        <time>2015-04-20T15:47:18Z</time>
      </trkpt>
      <trkpt lat="43.95909" lon="5.87233">
        <ele>230.49</ele>
        <time>2015-04-20T15:47:25Z</time>
      </trkpt>
      <trkpt lat="43.95887" lon="5.87249">
        <ele>226.96</ele>
        <time>2015-04-20T15:47:29Z</time>
      </trkpt>
      <trkpt lat="43.95866" lon="5.87237">
        <ele>225.16</ele>
        <time>2015-04-20T15:47:36Z</time>
      </trkpt>
      <trkpt lat="43.9584" lon="5.8712">
        <ele>221.99</ele>
        <time>2015-04-20T15:47:48Z</time>
      </trkpt>
      <trkpt lat="43.95837" lon="5.87109">
        <ele>221.71</ele>
        <time>2015-04-20T15:47:49Z</time>
      </trkpt>
      <trkpt lat="43.95826" lon="5.87065">
        <ele>218.58</ele>
        <time>2015-04-20T15:47:54Z</time>
      </trkpt>
      <trkpt lat="43.95817" lon="5.87051">
        <ele>217.21</ele>
        <time>2015-04-20T15:47:57Z</time>
      </trkpt>
      <trkpt lat="43.95808" lon="5.87052">
        <ele>216.47</ele>
        <time>2015-04-20T15:47:59Z</time>
      </trkpt>
      <trkpt lat="43.9574" lon="5.87076">
        <ele>215.65</ele>
        <time>2015-04-20T15:48:11Z</time>
      </trkpt>
      <trkpt lat="43.95667" lon="5.871">
        <ele>216.75</ele>
        <time>2015-04-20T15:48:24Z</time>
      </trkpt>
      <trkpt lat="43.95576" lon="5.87097">
        <ele>216.53</ele>
        <time>2015-04-20T15:48:39Z</time>
      </trkpt>
      <trkpt lat="43.95464" lon="5.87088">
        <ele>213.71</ele>
        <time>2015-04-20T15:48:56Z</time>
      </trkpt>
      <trkpt lat="43.95372" lon="5.87079">
        <ele>211.49</ele>
        <time>2015-04-20T15:49:09Z</time>
      </trkpt>
      <trkpt lat="43.95277" lon="5.87065">
        <ele>210.6</ele>
        <time>2015-04-20T15:49:23Z</time>
      </trkpt>
      <trkpt lat="43.95221" lon="5.8706">
        <ele>213.73</ele>
        <time>2015-04-20T15:49:31Z</time>
      </trkpt>
      <trkpt lat="43.95201" lon="5.87056">
        <ele>212.09</ele>
        <time>2015-04-20T15:49:34Z</time>
      </trkpt>
      <trkpt lat="43.95107" lon="5.8704">
        <ele>210.54</ele>
        <time>2015-04-20T15:49:48Z</time>
      </trkpt>
      <trkpt lat="43.95047" lon="5.87036">
        <ele>209.81</ele>
        <time>2015-04-20T15:49:57Z</time>
      </trkpt>
      <trkpt lat="43.94952" lon="5.87007">
        <ele>209.42</ele>
        <time>2015-04-20T15:50:12Z</time>
      </trkpt>
      <trkpt lat="43.94855" lon="5.86978">
        <ele>209.21</ele>
        <time>2015-04-20T15:50:27Z</time>
      </trkpt>
      <trkpt lat="43.94765" lon="5.86938">
        <ele>207.35</ele>
        <time>2015-04-20T15:50:41Z</time>
      </trkpt>
      <trkpt lat="43.94691" lon="5.86893">
        <ele>205.94</ele>
        <time>2015-04-20T15:50:53Z</time>
      </trkpt>
      <trkpt lat="43.9461" lon="5.86856">
        <ele>206.39</ele>
        <time>2015-04-20T15:51:05Z</time>
      </trkpt>
      <trkpt lat="43.94535" lon="5.8686">
        <ele>204.74</ele>
        <time>2015-04-20T15:51:16Z</time>
      </trkpt>
      <trkpt lat="43.94463" lon="5.86885">
        <ele>206.04</ele>
        <time>2015-04-20T15:51:28Z</time>
      </trkpt>
      <trkpt lat="43.94392" lon="5.86937">
        <ele>206.96</ele>
        <time>2015-04-20T15:51:41Z</time>
      </trkpt>
      <trkpt lat="43.94342" lon="5.87029">
        <ele>207.93</ele>
        <time>2015-04-20T15:51:55Z</time>
      </trkpt>
      <trkpt lat="43.9429" lon="5.87135">
        <ele>209.25</ele>
        <time>2015-04-20T15:52:11Z</time>
      </trkpt>
      <trkpt lat="43.94259" lon="5.87215">
        <ele>211.47</ele>
        <time>2015-04-20T15:52:25Z</time>
      </trkpt>
      <trkpt lat="43.9425" lon="5.87258">
        <ele>213.77</ele>
        <time>2015-04-20T15:52:32Z</time>
      </trkpt>
      <trkpt lat="43.94214" lon="5.87325">
        <ele>216.98</ele>
        <time>2015-04-20T15:52:46Z</time>
      </trkpt>
      <trkpt lat="43.94161" lon="5.87403">
        <ele>219.7</ele>
        <time>2015-04-20T15:53:02Z</time>
      </trkpt>
      <trkpt lat="43.94119" lon="5.87466">
        <ele>222.71</ele>
        <time>2015-04-20T15:53:15Z</time>
      </trkpt>
      <trkpt lat="43.94072" lon="5.87543">
        <ele>224.71</ele>
        <time>2015-04-20T15:53:30Z</time>
      </trkpt>
      <trkpt lat="43.94009" lon="5.87606">
        <ele>224.4</ele>
        <time>2015-04-20T15:53:43Z</time>
      </trkpt>
      <trkpt lat="43.93939" lon="5.87685">
        <ele>221.28</ele>
        <time>2015-04-20T15:53:54Z</time>
      </trkpt>
      <trkpt lat="43.93854" lon="5.87783">
        <ele>217.55</ele>
        <time>2015-04-20T15:54:06Z</time>
      </trkpt>
      <trkpt lat="43.93796" lon="5.8785">
        <ele>214.32</ele>
        <time>2015-04-20T15:54:14Z</time>
      </trkpt>
      <trkpt lat="43.93692" lon="5.87964">
        <ele>212.13</ele>
        <time>2015-04-20T15:54:28Z</time>
      </trkpt>
      <trkpt lat="43.93574" lon="5.88034">
        <ele>209.41</ele>
        <time>2015-04-20T15:54:42Z</time>
      </trkpt>
      <trkpt lat="43.93449" lon="5.88091">
        <ele>206.09</ele>
        <time>2015-04-20T15:54:56Z</time>
      </trkpt>
      <trkpt lat="43.93335" lon="5.8819">
        <ele>203.85</ele>
        <time>2015-04-20T15:55:11Z</time>
      </trkpt>
      <trkpt lat="43.93247" lon="5.88274">
        <ele>202.25</ele>
        <time>2015-04-20T15:55:24Z</time>
      </trkpt>
      <trkpt lat="43.9317" lon="5.88403">
        <ele>200.96</ele>
        <time>2015-04-20T15:55:39Z</time>
      </trkpt>
      <trkpt lat="43.93123" lon="5.88497">
        <ele>200.42</ele>
        <time>2015-04-20T15:55:49Z</time>
      </trkpt>
      <trkpt lat="43.93055" lon="5.88531">
        <ele>199.45</ele>
        <time>2015-04-20T15:55:58Z</time>
      </trkpt>
      <trkpt lat="43.9304" lon="5.88527">
        <ele>199.41</ele>
        <time>2015-04-20T15:56:00Z</time>
      </trkpt>
      <trkpt lat="43.92932" lon="5.88489">
        <ele>197.53</ele>
        <time>2015-04-20T15:56:17Z</time>
      </trkpt>
      <trkpt lat="43.92921" lon="5.8848">
        <ele>196.62</ele>
        <time>2015-04-20T15:56:21Z</time>
      </trkpt>
      <trkpt lat="43.92919" lon="5.88473">
        <ele>196.11</ele>
        <time>2015-04-20T15:56:26Z</time>
      </trkpt>
      <trkpt lat="43.92907" lon="5.88475">
        <ele>196.22</ele>
        <time>2015-04-20T15:56:34Z</time>
      </trkpt>
      <trkpt lat="43.92892" lon="5.88475">
        <ele>196.62</ele>
        <time>2015-04-20T15:56:38Z</time>
      </trkpt>
      <trkpt lat="43.92812" lon="5.88454">
        <ele>196.29</ele>
        <time>2015-04-20T15:56:53Z</time>
      </trkpt>
      <trkpt lat="43.92726" lon="5.88445">
        <ele>195.85</ele>
        <time>2015-04-20T15:57:07Z</time>
      </trkpt>
      <trkpt lat="43.92619" lon="5.88439">
        <ele>196.04</ele>
        <time>2015-04-20T15:57:24Z</time>
      </trkpt>
      <trkpt lat="43.92521" lon="5.88457">
        <ele>195.6</ele>
        <time>2015-04-20T15:57:39Z</time>
      </trkpt>
      <trkpt lat="43.92476" lon="5.88479">
        <ele>194.26</ele>
        <time>2015-04-20T15:57:46Z</time>
      </trkpt>
      <trkpt lat="43.9238" lon="5.88475">
        <ele>193.15</ele>
        <time>2015-04-20T15:57:59Z</time>
      </trkpt>
      <trkpt lat="43.92344" lon="5.88471">
        <ele>193.38</ele>
        <time>2015-04-20T15:58:04Z</time>
      </trkpt>
      <trkpt lat="43.92293" lon="5.88502">
        <ele>191.86</ele>
        <time>2015-04-20T15:58:12Z</time>
      </trkpt>
      <trkpt lat="43.92232" lon="5.88559">
        <ele>193.59</ele>
        <time>2015-04-20T15:58:23Z</time>
      </trkpt>
      <trkpt lat="43.92135" lon="5.88653">
        <ele>192.46</ele>
        <time>2015-04-20T15:58:40Z</time>
      </trkpt>
      <trkpt lat="43.92054" lon="5.887">
        <ele>190.95</ele>
        <time>2015-04-20T15:58:51Z</time>
      </trkpt>
      <trkpt lat="43.92032" lon="5.88713">
        <ele>190.66</ele>
        <time>2015-04-20T15:58:55Z</time>
      </trkpt>
      <trkpt lat="43.91997" lon="5.88717">
        <ele>191.38</ele>
        <time>2015-04-20T15:59:02Z</time>
      </trkpt>
      <trkpt lat="43.91929" lon="5.88702">
        <ele>188.09</ele>
        <time>2015-04-20T15:59:13Z</time>
      </trkpt>
      <trkpt lat="43.91915" lon="5.88696">
        <ele>187.49</ele>
        <time>2015-04-20T15:59:15Z</time>
      </trkpt>
      <trkpt lat="43.91866" lon="5.8867">
        <ele>185.08</ele>
        <time>2015-04-20T15:59:22Z</time>
      </trkpt>
      <trkpt lat="43.91816" lon="5.88652">
        <ele>181.32</ele>
        <time>2015-04-20T15:59:28Z</time>
      </trkpt>
      <trkpt lat="43.91799" lon="5.88645">
        <ele>180.61</ele>
        <time>2015-04-20T15:59:30Z</time>
      </trkpt>
      <trkpt lat="43.9179" lon="5.88643">
        <ele>180.32</ele>
        <time>2015-04-20T15:59:31Z</time>
      </trkpt>
      <trkpt lat="43.91753" lon="5.88628">
        <ele>176.68</ele>
        <time>2015-04-20T15:59:36Z</time>
      </trkpt>
      <trkpt lat="43.91749" lon="5.88626">
        <ele>175.7</ele>
        <time>2015-04-20T15:59:37Z</time>
      </trkpt>
      <trkpt lat="43.91731" lon="5.88635">
        <ele>172.64</ele>
        <time>2015-04-20T15:59:42Z</time>
      </trkpt>
      <trkpt lat="43.91725" lon="5.88644">
        <ele>171.53</ele>
        <time>2015-04-20T15:59:44Z</time>
      </trkpt>
      <trkpt lat="43.91691" lon="5.88655">
        <ele>169.46</ele>
        <time>2015-04-20T15:59:50Z</time>
      </trkpt>
      <trkpt lat="43.91662" lon="5.88647">
        <ele>166.39</ele>
        <time>2015-04-20T15:59:55Z</time>
      </trkpt>
      <trkpt lat="43.91653" lon="5.8861">
        <ele>164.75</ele>
        <time>2015-04-20T16:00:03Z</time>
      </trkpt>
      <trkpt lat="43.9167" lon="5.88544">
        <ele>162.99</ele>
        <time>2015-04-20T16:00:11Z</time>
      </trkpt>
      <trkpt lat="43.9166" lon="5.88468">
        <ele>160.34</ele>
        <time>2015-04-20T16:00:18Z</time>
      </trkpt>
      <trkpt lat="43.91617" lon="5.88443">
        <ele>159.35</ele>
        <time>2015-04-20T16:00:24Z</time>
      </trkpt>
      <trkpt lat="43.91609" lon="5.88444">
        <ele>159.77</ele>
        <time>2015-04-20T16:00:25Z</time>
      </trkpt>
      <trkpt lat="43.91492" lon="5.88458">
        <ele>157.98</ele>
        <time>2015-04-20T16:00:40Z</time>
      </trkpt>
      <trkpt lat="43.91352" lon="5.88467">
        <ele>156.59</ele>
        <time>2015-04-20T16:01:01Z</time>
      </trkpt>
      <trkpt lat="43.91318" lon="5.88464">
        <ele>156.01</ele>
        <time>2015-04-20T16:01:07Z</time>
      </trkpt>
      <trkpt lat="43.91308" lon="5.88462">
        <ele>156.25</ele>
        <time>2015-04-20T16:01:09Z</time>
      </trkpt>
      <trkpt lat="43.91287" lon="5.88452">
        <ele>156.98</ele>
        <time>2015-04-20T16:01:13Z</time>
      </trkpt>
      <trkpt lat="43.9125" lon="5.88446">
        <ele>158.57</ele>
        <time>2015-04-20T16:01:21Z</time>
      </trkpt>
      <trkpt lat="43.9122" lon="5.8844">
        <ele>159.24</ele>
        <time>2015-04-20T16:01:29Z</time>
      </trkpt>
      <trkpt lat="43.91216" lon="5.88395">
        <ele>161.5</ele>
        <time>2015-04-20T16:01:39Z</time>
      </trkpt>
      <trkpt lat="43.91211" lon="5.88352">
        <ele>164.66</ele>
        <time>2015-04-20T16:01:49Z</time>
      </trkpt>
      <trkpt lat="43.91171" lon="5.88335">
        <ele>166.77</ele>
        <time>2015-04-20T16:02:02Z</time>
      </trkpt>
      <trkpt lat="43.91117" lon="5.88317">
        <ele>169.72</ele>
        <time>2015-04-20T16:02:17Z</time>
      </trkpt>
      <trkpt lat="43.91083" lon="5.88292">
        <ele>171.69</ele>
        <time>2015-04-20T16:02:29Z</time>
      </trkpt>
      <trkpt lat="43.91064" lon="5.88251">
        <ele>174.99</ele>
        <time>2015-04-20T16:02:42Z</time>
      </trkpt>
      <trkpt lat="43.91054" lon="5.88199">
        <ele>178.01</ele>
        <time>2015-04-20T16:02:56Z</time>
      </trkpt>
      <trkpt lat="43.91031" lon="5.88169">
        <ele>181.3</ele>
        <time>2015-04-20T16:03:06Z</time>
      </trkpt>
      <trkpt lat="43.91002" lon="5.88122">
        <ele>183.73</ele>
        <time>2015-04-20T16:03:18Z</time>
      </trkpt>
      <trkpt lat="43.90951" lon="5.88062">
        <ele>185.65</ele>
        <time>2015-04-20T16:03:33Z</time>
      </trkpt>
      <trkpt lat="43.90885" lon="5.88018">
        <ele>185.19</ele>
        <time>2015-04-20T16:03:47Z</time>
      </trkpt>
      <trkpt lat="43.90833" lon="5.87984">
        <ele>188.26</ele>
        <time>2015-04-20T16:04:00Z</time>
      </trkpt>
      <trkpt lat="43.90818" lon="5.87971">
        <ele>189.19</ele>
        <time>2015-04-20T16:04:04Z</time>
      </trkpt>
      <trkpt lat="43.90769" lon="5.87887">
        <ele>190.58</ele>
        <time>2015-04-20T16:04:20Z</time>
      </trkpt>
      <trkpt lat="43.90757" lon="5.87862">
        <ele>191.21</ele>
        <time>2015-04-20T16:04:25Z</time>
      </trkpt>
      <trkpt lat="43.90752" lon="5.87851">
        <ele>191.76</ele>
        <time>2015-04-20T16:04:27Z</time>
      </trkpt>
      <trkpt lat="43.9073" lon="5.87787">
        <ele>193.26</ele>
        <time>2015-04-20T16:04:38Z</time>
      </trkpt>
      <trkpt lat="43.90728" lon="5.87775">
        <ele>193.82</ele>
        <time>2015-04-20T16:04:40Z</time>
      </trkpt>
      <trkpt lat="43.90727" lon="5.87764">
        <ele>194.7</ele>
        <time>2015-04-20T16:04:42Z</time>
      </trkpt>
      <trkpt lat="43.9073" lon="5.87735">
        <ele>195.94</ele>
        <time>2015-04-20T16:04:47Z</time>
      </trkpt>
      <trkpt lat="43.90714" lon="5.87659">
        <ele>197.1</ele>
        <time>2015-04-20T16:04:59Z</time>
      </trkpt>
      <trkpt lat="43.90699" lon="5.87597">
        <ele>198.29</ele>
        <time>2015-04-20T16:05:09Z</time>
      </trkpt>
      <trkpt lat="43.90688" lon="5.87572">
        <ele>197.25</ele>
        <time>2015-04-20T16:05:13Z</time>
      </trkpt>
      <trkpt lat="43.90662" lon="5.87537">
        <ele>197.1</ele>
        <time>2015-04-20T16:05:21Z</time>
      </trkpt>
      <trkpt lat="43.90648" lon="5.87522">
        <ele>197.98</ele>
        <time>2015-04-20T16:05:25Z</time>
      </trkpt>
      <trkpt lat="43.90639" lon="5.87501">
        <ele>199.65</ele>
        <time>2015-04-20T16:05:29Z</time>
      </trkpt>
      <trkpt lat="43.90635" lon="5.87476">
        <ele>201.06</ele>
        <time>2015-04-20T16:05:33Z</time>
      </trkpt>
      <trkpt lat="43.90622" lon="5.8745">
        <ele>201.97</ele>
        <time>2015-04-20T16:05:38Z</time>
      </trkpt>
      <trkpt lat="43.90584" lon="5.87407">
        <ele>204.4</ele>
        <time>2015-04-20T16:05:50Z</time>
      </trkpt>
      <trkpt lat="43.90544" lon="5.87389">
        <ele>205.59</ele>
        <time>2015-04-20T16:06:00Z</time>
      </trkpt>
      <trkpt lat="43.9052" lon="5.87373">
        <ele>206.01</ele>
        <time>2015-04-20T16:06:06Z</time>
      </trkpt>
      <trkpt lat="43.90502" lon="5.87358">
        <ele>206.73</ele>
        <time>2015-04-20T16:06:11Z</time>
      </trkpt>
      <trkpt lat="43.90475" lon="5.87331">
        <ele>205.57</ele>
        <time>2015-04-20T16:06:18Z</time>
      </trkpt>
      <trkpt lat="43.90445" lon="5.87318">
        <ele>202.95</ele>
        <time>2015-04-20T16:06:23Z</time>
      </trkpt>
      <trkpt lat="43.90412" lon="5.8732">
        <ele>199.7</ele>
        <time>2015-04-20T16:06:27Z</time>
      </trkpt>
      <trkpt lat="43.90379" lon="5.87315">
        <ele>197.34</ele>
        <time>2015-04-20T16:06:31Z</time>
      </trkpt>
      <trkpt lat="43.9034" lon="5.87285">
        <ele>192.49</ele>
        <time>2015-04-20T16:06:37Z</time>
      </trkpt>
      <trkpt lat="43.90315" lon="5.87282">
        <ele>189.2</ele>
        <time>2015-04-20T16:06:40Z</time>
      </trkpt>
      <trkpt lat="43.90296" lon="5.87288">
        <ele>187.66</ele>
        <time>2015-04-20T16:06:42Z</time>
      </trkpt>
      <trkpt lat="43.90275" lon="5.87294">
        <ele>186.18</ele>
        <time>2015-04-20T16:06:44Z</time>
      </trkpt>
      <trkpt lat="43.90235" lon="5.87289">
        <ele>183.59</ele>
        <time>2015-04-20T16:06:48Z</time>
      </trkpt>
      <trkpt lat="43.90215" lon="5.87274">
        <ele>184.81</ele>
        <time>2015-04-20T16:06:51Z</time>
      </trkpt>
      <trkpt lat="43.90197" lon="5.87239">
        <ele>188.27</ele>
        <time>2015-04-20T16:07:00Z</time>
      </trkpt>
      <trkpt lat="43.90187" lon="5.87214">
        <ele>191.58</ele>
        <time>2015-04-20T16:07:07Z</time>
      </trkpt>
      <trkpt lat="43.90175" lon="5.87165">
        <ele>193.3</ele>
        <time>2015-04-20T16:07:18Z</time>
      </trkpt>
      <trkpt lat="43.90166" lon="5.87143">
        <ele>192.59</ele>
        <time>2015-04-20T16:07:22Z</time>
      </trkpt>
      <trkpt lat="43.90117" lon="5.87077">
        <ele>194.26</ele>
        <time>2015-04-20T16:07:39Z</time>
      </trkpt>
      <trkpt lat="43.90095" lon="5.87045">
        <ele>197.39</ele>
        <time>2015-04-20T16:07:48Z</time>
      </trkpt>
      <trkpt lat="43.90066" lon="5.86995">
        <ele>200.75</ele>
        <time>2015-04-20T16:08:01Z</time>
      </trkpt>
      <trkpt lat="43.90046" lon="5.86964">
        <ele>203.89</ele>
        <time>2015-04-20T16:08:09Z</time>
      </trkpt>
      <trkpt lat="43.89995" lon="5.86913">
        <ele>206.22</ele>
        <time>2015-04-20T16:08:25Z</time>
      </trkpt>
      <trkpt lat="43.89933" lon="5.86854">
        <ele>205.69</ele>
        <time>2015-04-20T16:08:39Z</time>
      </trkpt>
      <trkpt lat="43.89872" lon="5.86801">
        <ele>206.07</ele>
        <time>2015-04-20T16:08:53Z</time>
      </trkpt>
      <trkpt lat="43.89811" lon="5.86742">
        <ele>207.24</ele>
        <time>2015-04-20T16:09:08Z</time>
      </trkpt>
      <trkpt lat="43.89777" lon="5.86706">
        <ele>205.96</ele>
        <time>2015-04-20T16:09:19Z</time>
      </trkpt>
      <trkpt lat="43.89781" lon="5.86694">
        <ele>206.51</ele>
        <time>2015-04-20T16:09:25Z</time>
      </trkpt>
      <trkpt lat="43.89794" lon="5.86662">
        <ele>209.89</ele>
        <time>2015-04-20T16:09:39Z</time>
      </trkpt>
      <trkpt lat="43.89808" lon="5.86637">
        <ele>213.07</ele>
        <time>2015-04-20T16:09:49Z</time>
      </trkpt>
      <trkpt lat="43.8982" lon="5.86614">
        <ele>216.46</ele>
        <time>2015-04-20T16:10:00Z</time>
      </trkpt>
      <trkpt lat="43.89833" lon="5.86587">
        <ele>219.5</ele>
        <time>2015-04-20T16:10:12Z</time>
      </trkpt>
      <trkpt lat="43.89845" lon="5.86564">
        <ele>222.73</ele>
        <time>2015-04-20T16:10:22Z</time>
      </trkpt>
      <trkpt lat="43.89843" lon="5.86545">
        <ele>224.54</ele>
        <time>2015-04-20T16:10:30Z</time>
      </trkpt>
    </trkseg>
  </trk>
</gpx>